Wetterdaten: Dienstag, 30.12.2014
Datum Zeit Temp. Aussen +5cm Feuchte Auss Luftdruck Regen Sonnenschein Regendauer Solar Windben
30.12.2014 00:00 -0,3 C -1,1 C 94 % 1036,8 hPa 0,0 l/m 0 min 0 min 0 W/m 6,3 km/h (2 Bft)
30.12.2014 00:02 -0,3 C -1,1 C 94 % 1036,8 hPa 0,0 l/m 0 min 0 min 0 W/m 6,3 km/h (2 Bft)
30.12.2014 00:05 -0,3 C -1,1 C 94 % 1036,8 hPa 0,0 l/m 0 min 0 min 0 W/m 6,3 km/h (2 Bft)
30.12.2014 00:06 -0,3 C -1,1 C 94 % 1036,8 hPa 0,0 l/m 0 min 0 min 0 W/m 6,3 km/h (2 Bft)
30.12.2014 00:08 -0,3 C -1,1 C 94 % 1036,8 hPa 0,0 l/m 0 min 0 min 0 W/m 6,3 km/h (2 Bft)
30.12.2014 00:10 -0,3 C -1,1 C 94 % 1036,7 hPa 0,0 l/m 0 min 0 min 0 W/m 6,3 km/h (2 Bft)
30.12.2014 00:12 -0,3 C -1,1 C 94 % 1036,7 hPa 0,0 l/m 0 min 0 min 0 W/m 6,3 km/h (2 Bft)
30.12.2014 00:14 -0,3 C -1,1 C 94 % 1036,7 hPa 0,0 l/m 0 min 0 min 0 W/m 10,5 km/h (2 Bft)
30.12.2014 00:16 -0,3 C -1,1 C 94 % 1036,8 hPa 0,0 l/m 0 min 0 min 0 W/m 6,3 km/h (2 Bft)
30.12.2014 00:18 -0,2 C -1,1 C 94 % 1036,7 hPa 0,0 l/m 0 min 0 min 0 W/m 6,3 km/h (2 Bft)
30.12.2014 00:20 -0,2 C -1,1 C 94 % 1036,7 hPa 0,0 l/m 0 min 0 min 0 W/m 6,3 km/h (2 Bft)
30.12.2014 00:22 -0,2 C -1,1 C 94 % 1036,7 hPa 0,0 l/m 0 min 0 min 0 W/m 6,3 km/h (2 Bft)
30.12.2014 00:24 -0,2 C -1,1 C 94 % 1036,7 hPa 0,0 l/m 0 min 0 min 0 W/m 6,3 km/h (2 Bft)
30.12.2014 00:26 -0,2 C -1,1 C 94 % 1036,7 hPa 0,0 l/m 0 min 0 min 0 W/m 8,4 km/h (2 Bft)
30.12.2014 00:28 -0,2 C -1,1 C 94 % 1036,7 hPa 0,0 l/m 0 min 0 min 0 W/m 6,3 km/h (2 Bft)
30.12.2014 00:30 -0,2 C -1,1 C 94 % 1036,7 hPa 0,0 l/m 0 min 0 min 0 W/m 8,4 km/h (2 Bft)
30.12.2014 00:32 -0,1 C -1,1 C 94 % 1036,7 hPa 0,0 l/m 0 min 0 min 0 W/m 6,3 km/h (2 Bft)
30.12.2014 00:34 -0,1 C -1,1 C 94 % 1036,6 hPa 0,0 l/m 0 min 0 min 0 W/m 8,4 km/h (2 Bft)
30.12.2014 00:36 -0,1 C -0,6 C 94 % 1036,6 hPa 0,0 l/m 0 min 0 min 0 W/m 6,3 km/h (2 Bft)
30.12.2014 00:38 -0,1 C -0,6 C 94 % 1036,6 hPa 0,0 l/m 0 min 0 min 0 W/m 10,5 km/h (2 Bft)
30.12.2014 00:40 -0,1 C -0,6 C 94 % 1036,7 hPa 0,0 l/m 0 min 0 min 0 W/m 8,4 km/h (2 Bft)
30.12.2014 00:42 -0,1 C -0,6 C 94 % 1036,6 hPa 0,0 l/m 0 min 0 min 0 W/m 6,3 km/h (2 Bft)
30.12.2014 00:44 0,0 C -0,6 C 94 % 1036,6 hPa 0,0 l/m 0 min 0 min 0 W/m 10,5 km/h (2 Bft)
30.12.2014 00:46 0,0 C -0,6 C 94 % 1036,5 hPa 0,0 l/m 0 min 0 min 0 W/m 10,5 km/h (2 Bft)
30.12.2014 00:48 0,0 C -0,6 C 94 % 1036,5 hPa 0,0 l/m 0 min 0 min 0 W/m 10,5 km/h (2 Bft)
30.12.2014 00:50 0,1 C -0,6 C 94 % 1036,6 hPa 0,0 l/m 0 min 0 min 0 W/m 8,4 km/h (2 Bft)
30.12.2014 00:52 0,1 C -0,6 C 94 % 1036,6 hPa 0,0 l/m 0 min 0 min 0 W/m 10,5 km/h (2 Bft)
30.12.2014 00:54 0,1 C -0,6 C 94 % 1036,6 hPa 0,0 l/m 0 min 0 min 0 W/m 8,4 km/h (2 Bft)
30.12.2014 00:56 0,1 C -0,6 C 95 % 1036,6 hPa 0,0 l/m 0 min 0 min 0 W/m 8,4 km/h (2 Bft)
30.12.2014 00:58 0,1 C -0,6 C 95 % 1036,6 hPa 0,0 l/m 0 min 0 min 0 W/m 10,5 km/h (2 Bft)
30.12.2014 01:00 0,2 C -0,6 C 95 % 1036,5 hPa 0,0 l/m 0 min 0 min 0 W/m 10,5 km/h (2 Bft)
30.12.2014 01:02 0,2 C -0,6 C 95 % 1036,5 hPa 0,0 l/m 0 min 0 min 0 W/m 12,6 km/h (3 Bft)
30.12.2014 01:04 0,2 C -0,6 C 95 % 1036,5 hPa 0,0 l/m 0 min 0 min 0 W/m 10,5 km/h (2 Bft)
30.12.2014 01:06 0,2 C -0,6 C 95 % 1036,5 hPa 0,0 l/m 0 min 0 min 0 W/m 12,6 km/h (3 Bft)
30.12.2014 01:08 0,3 C -0,6 C 95 % 1036,5 hPa 0,0 l/m 0 min 0 min 0 W/m 12,6 km/h (3 Bft)
30.12.2014 01:10 0,3 C -0,6 C 95 % 1036,5 hPa 0,0 l/m 0 min 0 min 0 W/m 14,6 km/h (3 Bft)
30.12.2014 01:12 0,3 C -0,6 C 95 % 1036,5 hPa 0,0 l/m 0 min 0 min 0 W/m 10,5 km/h (2 Bft)
30.12.2014 01:14 0,4 C -0,6 C 95 % 1036,4 hPa 0,0 l/m 0 min 0 min 0 W/m 16,7 km/h (3 Bft)
30.12.2014 01:16 0,4 C -0,6 C 95 % 1036,4 hPa 0,0 l/m 0 min 2 min 0 W/m 14,6 km/h (3 Bft)
30.12.2014 01:18 0,5 C -0,6 C 95 % 1036,4 hPa 0,0 l/m 0 min 2 min 0 W/m 12,6 km/h (3 Bft)
30.12.2014 01:20 0,5 C -0,6 C 95 % 1036,4 hPa 0,0 l/m 0 min 2 min 0 W/m 14,6 km/h (3 Bft)
30.12.2014 01:22 0,5 C -0,6 C 95 % 1036,4 hPa 0,0 l/m 0 min 0 min 0 W/m 12,6 km/h (3 Bft)
30.12.2014 01:24 0,5 C -0,6 C 95 % 1036,4 hPa 0,0 l/m 0 min 0 min 0 W/m 12,6 km/h (3 Bft)
30.12.2014 01:26 0,5 C -0,6 C 95 % 1036,4 hPa 0,0 l/m 0 min 0 min 0 W/m 10,5 km/h (2 Bft)
30.12.2014 01:28 0,5 C -0,6 C 95 % 1036,4 hPa 0,0 l/m 0 min 2 min 0 W/m 10,5 km/h (2 Bft)
30.12.2014 01:30 0,6 C -0,6 C 95 % 1036,3 hPa 0,0 l/m 0 min 2 min 0 W/m 12,6 km/h (3 Bft)
30.12.2014 01:32 0,6 C -0,6 C 95 % 1036,4 hPa 0,0 l/m 0 min 2 min 0 W/m 10,5 km/h (2 Bft)
30.12.2014 01:34 0,6 C -0,6 C 95 % 1036,3 hPa 0,0 l/m 0 min 0 min 0 W/m 10,5 km/h (2 Bft)
30.12.2014 01:36 0,6 C -0,6 C 95 % 1036,3 hPa 0,0 l/m 0 min 0 min 0 W/m 12,6 km/h (3 Bft)
30.12.2014 01:38 0,7 C -0,6 C 95 % 1036,4 hPa 0,0 l/m 0 min 2 min 0 W/m 10,5 km/h (2 Bft)
30.12.2014 01:40 0,7 C -0,6 C 95 % 1036,3 hPa 0,0 l/m 0 min 2 min 0 W/m 10,5 km/h (2 Bft)
30.12.2014 01:42 0,7 C -0,6 C 95 % 1036,3 hPa 0,0 l/m 0 min 2 min 0 W/m 12,6 km/h (3 Bft)
30.12.2014 01:44 0,7 C -0,6 C 95 % 1036,2 hPa 0,0 l/m 0 min 2 min 0 W/m 10,5 km/h (2 Bft)
30.12.2014 01:46 0,7 C -0,6 C 95 % 1036,3 hPa 0,0 l/m 0 min 0 min 0 W/m 10,5 km/h (2 Bft)
30.12.2014 01:48 0,7 C -0,6 C 95 % 1036,3 hPa 0,0 l/m 0 min 2 min 0 W/m 14,6 km/h (3 Bft)
30.12.2014 01:50 0,7 C -0,6 C 95 % 1036,2 hPa 0,0 l/m 0 min 2 min 0 W/m 16,7 km/h (3 Bft)
30.12.2014 01:52 0,8 C -0,6 C 95 % 1036,2 hPa 0,0 l/m 0 min 2 min 0 W/m 12,6 km/h (3 Bft)
30.12.2014 01:54 0,8 C -0,6 C 95 % 1036,3 hPa 0,0 l/m 0 min 2 min 0 W/m 12,6 km/h (3 Bft)
30.12.2014 01:56 0,8 C -0,6 C 95 % 1036,3 hPa 0,0 l/m 0 min 2 min 0 W/m 8,4 km/h (2 Bft)
30.12.2014 01:58 0,8 C -0,6 C 95 % 1036,3 hPa 0,0 l/m 0 min 2 min 0 W/m 10,5 km/h (2 Bft)
30.12.2014 02:00 0,8 C 0,0 C 95 % 1036,3 hPa 0,0 l/m 0 min 2 min 0 W/m 12,6 km/h (3 Bft)
30.12.2014 02:02 0,8 C -0,6 C 95 % 1036,3 hPa 0,0 l/m 0 min 2 min 0 W/m 12,6 km/h (3 Bft)
30.12.2014 02:04 0,9 C -0,6 C 95 % 1036,3 hPa 0,0 l/m 0 min 0 min 0 W/m 8,4 km/h (2 Bft)
30.12.2014 02:06 0,9 C -0,6 C 95 % 1036,3 hPa 0,0 l/m 0 min 0 min 0 W/m 12,6 km/h (3 Bft)
30.12.2014 02:08 0,9 C 0,0 C 95 % 1036,3 hPa 0,0 l/m 0 min 2 min 0 W/m 14,6 km/h (3 Bft)
30.12.2014 02:10 0,9 C 0,0 C 95 % 1036,3 hPa 0,0 l/m 0 min 2 min 0 W/m 12,6 km/h (3 Bft)
30.12.2014 02:12 0,9 C -0,6 C 95 % 1036,3 hPa 0,0 l/m 0 min 2 min 0 W/m 8,4 km/h (2 Bft)
30.12.2014 02:14 0,9 C 0,0 C 95 % 1036,4 hPa 0,0 l/m 0 min 2 min 0 W/m 10,5 km/h (2 Bft)
30.12.2014 02:16 0,9 C 0,0 C 95 % 1036,4 hPa 0,0 l/m 0 min 2 min 0 W/m 12,6 km/h (3 Bft)
30.12.2014 02:18 1,0 C 0,0 C 95 % 1036,3 hPa 0,0 l/m 0 min 2 min 0 W/m 16,7 km/h (3 Bft)
30.12.2014 02:20 1,0 C 0,0 C 95 % 1036,2 hPa 0,0 l/m 0 min 2 min 0 W/m 12,6 km/h (3 Bft)
30.12.2014 02:22 1,0 C 0,0 C 95 % 1036,1 hPa 0,0 l/m 0 min 2 min 0 W/m 16,7 km/h (3 Bft)
30.12.2014 02:24 1,1 C 0,0 C 95 % 1036,1 hPa 0,0 l/m 0 min 2 min 0 W/m 12,6 km/h (3 Bft)
30.12.2014 02:26 1,1 C 0,0 C 95 % 1036,1 hPa 0,0 l/m 0 min 2 min 0 W/m 10,5 km/h (2 Bft)
30.12.2014 02:28 1,1 C 0,0 C 95 % 1036,0 hPa 0,0 l/m 0 min 2 min 0 W/m 18,8 km/h (3 Bft)
30.12.2014 02:30 1,1 C 0,0 C 95 % 1036,1 hPa 0,0 l/m 0 min 2 min 0 W/m 14,6 km/h (3 Bft)
30.12.2014 02:32 1,2 C 0,0 C 95 % 1036,2 hPa 0,0 l/m 0 min 0 min 0 W/m 18,8 km/h (3 Bft)
30.12.2014 02:34 1,2 C 0,0 C 95 % 1036,1 hPa 0,0 l/m 0 min 0 min 0 W/m 18,8 km/h (3 Bft)
30.12.2014 02:36 1,2 C 0,0 C 95 % 1036,1 hPa 0,0 l/m 0 min 2 min 0 W/m 14,6 km/h (3 Bft)
30.12.2014 02:38 1,3 C 0,0 C 95 % 1036,1 hPa 0,0 l/m 0 min 2 min 0 W/m 14,6 km/h (3 Bft)
30.12.2014 02:40 1,3 C 0,0 C 95 % 1036,1 hPa 0,0 l/m 0 min 2 min 0 W/m 18,8 km/h (3 Bft)
30.12.2014 02:42 1,3 C 0,0 C 95 % 1036,2 hPa 0,0 l/m 0 min 2 min 0 W/m 16,7 km/h (3 Bft)
30.12.2014 02:44 1,3 C 0,0 C 95 % 1036,2 hPa 0,0 l/m 0 min 2 min 0 W/m 4,2 km/h (1 Bft)
30.12.2014 02:46 1,3 C 0,0 C 95 % 1036,4 hPa 0,0 l/m 0 min 2 min 0 W/m 6,3 km/h (2 Bft)
30.12.2014 02:48 1,4 C 0,0 C 95 % 1036,2 hPa 0,0 l/m 0 min 2 min 0 W/m 6,3 km/h (2 Bft)
30.12.2014 02:50 1,4 C 0,0 C 95 % 1036,2 hPa 0,0 l/m 0 min 2 min 0 W/m 8,4 km/h (2 Bft)
30.12.2014 02:52 1,4 C 0,0 C 95 % 1036,2 hPa 0,0 l/m 0 min 2 min 0 W/m 12,6 km/h (3 Bft)
30.12.2014 02:54 1,4 C 0,0 C 95 % 1036,2 hPa 0,0 l/m 0 min 2 min 0 W/m 10,5 km/h (2 Bft)
30.12.2014 02:56 1,4 C 0,0 C 95 % 1036,2 hPa 0,0 l/m 0 min 2 min 0 W/m 8,4 km/h (2 Bft)
30.12.2014 02:58 1,4 C 0,0 C 96 % 1036,2 hPa 0,0 l/m 0 min 2 min 0 W/m 10,5 km/h (2 Bft)
30.12.2014 03:00 1,4 C 0,0 C 96 % 1036,1 hPa 0,0 l/m 0 min 2 min 0 W/m 12,6 km/h (3 Bft)
30.12.2014 03:02 1,4 C 0,0 C 96 % 1036,1 hPa 0,0 l/m 0 min 2 min 0 W/m 18,8 km/h (3 Bft)
30.12.2014 03:04 1,4 C 0,0 C 95 % 1036,1 hPa 0,0 l/m 0 min 2 min 0 W/m 12,6 km/h (3 Bft)
30.12.2014 03:06 1,4 C 0,0 C 96 % 1036,0 hPa 0,0 l/m 0 min 2 min 0 W/m 16,7 km/h (3 Bft)
30.12.2014 03:08 1,4 C 0,0 C 96 % 1036,0 hPa 0,0 l/m 0 min 2 min 0 W/m 14,6 km/h (3 Bft)
30.12.2014 03:10 1,4 C 0,0 C 95 % 1036,0 hPa 0,0 l/m 0 min 2 min 0 W/m 10,5 km/h (2 Bft)
30.12.2014 03:12 1,4 C 0,0 C 95 % 1036,0 hPa 0,0 l/m 0 min 2 min 0 W/m 14,6 km/h (3 Bft)
30.12.2014 03:14 1,4 C 0,0 C 95 % 1036,0 hPa 0,0 l/m 0 min 2 min 0 W/m 8,4 km/h (2 Bft)
30.12.2014 03:16 1,4 C 0,0 C 95 % 1036,1 hPa 0,0 l/m 0 min 2 min 0 W/m 10,5 km/h (2 Bft)
30.12.2014 03:18 1,4 C 0,0 C 95 % 1036,1 hPa 0,0 l/m 0 min 2 min 0 W/m 12,6 km/h (3 Bft)
30.12.2014 03:20 1,4 C 0,0 C 95 % 1036,1 hPa 0,0 l/m 0 min 2 min 0 W/m 10,5 km/h (2 Bft)
30.12.2014 03:22 1,4 C 0,0 C 95 % 1036,1 hPa 0,0 l/m 0 min 2 min 0 W/m 14,6 km/h (3 Bft)
30.12.2014 03:24 1,4 C 0,0 C 95 % 1036,0 hPa 0,0 l/m 0 min 2 min 0 W/m 12,6 km/h (3 Bft)
30.12.2014 03:26 1,4 C 0,0 C 95 % 1036,1 hPa 0,0 l/m 0 min 0 min 0 W/m 14,6 km/h (3 Bft)
30.12.2014 03:28 1,4 C 0,0 C 95 % 1036,0 hPa 0,0 l/m 0 min 0 min 0 W/m 10,5 km/h (2 Bft)
30.12.2014 03:30 1,4 C 0,0 C 96 % 1036,0 hPa 0,0 l/m 0 min 0 min 0 W/m 16,7 km/h (3 Bft)
30.12.2014 03:32 1,4 C 0,0 C 96 % 1036,0 hPa 0,2 l/m 0 min 0 min 0 W/m 14,6 km/h (3 Bft)
30.12.2014 03:34 1,4 C 0,0 C 96 % 1036,0 hPa 0,0 l/m 0 min 2 min 0 W/m 14,6 km/h (3 Bft)
30.12.2014 03:36 1,4 C 0,0 C 96 % 1036,0 hPa 0,0 l/m 0 min 0 min 0 W/m 12,6 km/h (3 Bft)
30.12.2014 03:38 1,4 C 0,0 C 96 % 1035,9 hPa 0,0 l/m 0 min 2 min 0 W/m 12,6 km/h (3 Bft)
30.12.2014 03:40 1,4 C 0,0 C 96 % 1035,9 hPa 0,0 l/m 0 min 2 min 0 W/m 12,6 km/h (3 Bft)
30.12.2014 03:42 1,4 C 0,0 C 96 % 1035,9 hPa 0,0 l/m 0 min 2 min 0 W/m 10,5 km/h (2 Bft)
30.12.2014 03:44 1,4 C 0,0 C 96 % 1035,9 hPa 0,2 l/m 0 min 2 min 0 W/m 14,6 km/h (3 Bft)
30.12.2014 03:46 1,4 C 0,0 C 96 % 1036,0 hPa 0,2 l/m 0 min 2 min 0 W/m 18,8 km/h (3 Bft)
30.12.2014 03:48 1,5 C 0,0 C 96 % 1035,9 hPa 0,0 l/m 0 min 2 min 0 W/m 12,6 km/h (3 Bft)
30.12.2014 03:50 1,5 C 0,0 C 96 % 1036,0 hPa 0,0 l/m 0 min 0 min 0 W/m 16,7 km/h (3 Bft)
30.12.2014 03:52 1,6 C 0,6 C 96 % 1035,9 hPa 0,0 l/m 0 min 0 min 0 W/m 12,6 km/h (3 Bft)
30.12.2014 03:54 1,6 C 0,0 C 96 % 1035,9 hPa 0,0 l/m 0 min 0 min 0 W/m 12,6 km/h (3 Bft)
30.12.2014 03:56 1,6 C 0,0 C 96 % 1035,9 hPa 0,0 l/m 0 min 0 min 0 W/m 14,6 km/h (3 Bft)
30.12.2014 03:58 1,6 C 0,0 C 96 % 1035,9 hPa 0,0 l/m 0 min 0 min 0 W/m 8,4 km/h (2 Bft)
30.12.2014 04:00 1,6 C 0,0 C 96 % 1035,9 hPa 0,0 l/m 0 min 0 min 0 W/m 10,5 km/h (2 Bft)
30.12.2014 04:05 1,5 C 0,0 C 96 % 1035,9 hPa 0,0 l/m 0 min 0 min 0 W/m 12,6 km/h (3 Bft)
30.12.2014 04:06 1,5 C 0,0 C 96 % 1035,9 hPa 0,0 l/m 0 min 0 min 0 W/m 10,5 km/h (2 Bft)
30.12.2014 04:08 1,5 C 0,0 C 96 % 1035,9 hPa 0,0 l/m 0 min 0 min 0 W/m 10,5 km/h (2 Bft)
30.12.2014 04:10 1,5 C 0,0 C 96 % 1036,0 hPa 0,0 l/m 0 min 0 min 0 W/m 12,6 km/h (3 Bft)
30.12.2014 04:12 1,5 C 0,0 C 96 % 1035,9 hPa 0,0 l/m 0 min 0 min 0 W/m 10,5 km/h (2 Bft)
30.12.2014 04:14 1,5 C 0,0 C 96 % 1035,9 hPa 0,0 l/m 0 min 0 min 0 W/m 10,5 km/h (2 Bft)
30.12.2014 04:16 1,5 C 0,0 C 96 % 1035,9 hPa 0,0 l/m 0 min 0 min 0 W/m 14,6 km/h (3 Bft)
30.12.2014 04:18 1,5 C 0,0 C 96 % 1036,0 hPa 0,0 l/m 0 min 0 min 0 W/m 12,6 km/h (3 Bft)
30.12.2014 04:20 1,6 C 0,6 C 96 % 1036,0 hPa 0,0 l/m 0 min 0 min 0 W/m 16,7 km/h (3 Bft)
30.12.2014 04:22 1,6 C 0,6 C 96 % 1036,0 hPa 0,0 l/m 0 min 0 min 0 W/m 12,6 km/h (3 Bft)
30.12.2014 04:24 1,6 C 0,6 C 96 % 1036,0 hPa 0,0 l/m 0 min 2 min 0 W/m 10,5 km/h (2 Bft)
30.12.2014 04:26 1,6 C 0,0 C 96 % 1036,0 hPa 0,0 l/m 0 min 2 min 0 W/m 12,6 km/h (3 Bft)
30.12.2014 04:28 1,6 C 0,0 C 96 % 1036,0 hPa 0,0 l/m 0 min 2 min 0 W/m 12,6 km/h (3 Bft)
30.12.2014 04:30 1,6 C 0,6 C 96 % 1035,9 hPa 0,2 l/m 0 min 2 min 0 W/m 14,6 km/h (3 Bft)
30.12.2014 04:32 1,6 C 0,6 C 96 % 1036,0 hPa 0,0 l/m 0 min 2 min 0 W/m 12,6 km/h (3 Bft)
30.12.2014 04:34 1,6 C 0,6 C 96 % 1036,0 hPa 0,0 l/m 0 min 2 min 0 W/m 10,5 km/h (2 Bft)
30.12.2014 04:36 1,6 C 0,6 C 96 % 1035,9 hPa 0,0 l/m 0 min 2 min 0 W/m 10,5 km/h (2 Bft)
30.12.2014 04:38 1,6 C 0,6 C 96 % 1035,9 hPa 0,0 l/m 0 min 2 min 0 W/m 12,6 km/h (3 Bft)
30.12.2014 04:40 1,6 C 0,6 C 96 % 1035,9 hPa 0,0 l/m 0 min 2 min 0 W/m 8,4 km/h (2 Bft)
30.12.2014 04:42 1,6 C 0,6 C 96 % 1035,9 hPa 0,0 l/m 0 min 2 min 0 W/m 10,5 km/h (2 Bft)
30.12.2014 04:44 1,6 C 0,0 C 96 % 1035,9 hPa 0,0 l/m 0 min 2 min 0 W/m 10,5 km/h (2 Bft)
30.12.2014 04:46 1,6 C 0,0 C 96 % 1035,9 hPa 0,0 l/m 0 min 2 min 0 W/m 8,4 km/h (2 Bft)
30.12.2014 04:48 1,6 C 0,0 C 97 % 1035,9 hPa 0,0 l/m 0 min 2 min 0 W/m 8,4 km/h (2 Bft)
30.12.2014 04:50 1,6 C 0,0 C 96 % 1035,8 hPa 0,0 l/m 0 min 2 min 0 W/m 12,6 km/h (3 Bft)
30.12.2014 04:52 1,6 C 0,0 C 96 % 1035,8 hPa 0,2 l/m 0 min 2 min 0 W/m 10,5 km/h (2 Bft)
30.12.2014 04:54 1,6 C 0,0 C 96 % 1035,8 hPa 0,0 l/m 0 min 2 min 0 W/m 10,5 km/h (2 Bft)
30.12.2014 04:56 1,6 C 0,0 C 96 % 1035,8 hPa 0,0 l/m 0 min 2 min 0 W/m 8,4 km/h (2 Bft)
30.12.2014 04:58 1,6 C 0,0 C 96 % 1035,8 hPa 0,0 l/m 0 min 2 min 0 W/m 10,5 km/h (2 Bft)
30.12.2014 05:00 1,6 C 0,0 C 96 % 1035,8 hPa 0,0 l/m 0 min 2 min 0 W/m 12,6 km/h (3 Bft)
30.12.2014 05:02 1,6 C 0,0 C 96 % 1035,8 hPa 0,0 l/m 0 min 0 min 0 W/m 10,5 km/h (2 Bft)
30.12.2014 05:04 1,6 C 0,0 C 96 % 1035,8 hPa 0,0 l/m 0 min 0 min 0 W/m 12,6 km/h (3 Bft)
30.12.2014 05:06 1,6 C 0,0 C 96 % 1035,7 hPa 0,0 l/m 0 min 0 min 0 W/m 10,5 km/h (2 Bft)
30.12.2014 05:08 1,6 C 0,0 C 96 % 1035,8 hPa 0,0 l/m 0 min 0 min 0 W/m 8,4 km/h (2 Bft)
30.12.2014 05:10 1,6 C 0,0 C 96 % 1035,8 hPa 0,0 l/m 0 min 0 min 0 W/m 10,5 km/h (2 Bft)
30.12.2014 05:12 1,6 C 0,6 C 96 % 1035,8 hPa 0,0 l/m 0 min 0 min 0 W/m 8,4 km/h (2 Bft)
30.12.2014 05:14 1,6 C 0,0 C 96 % 1035,8 hPa 0,0 l/m 0 min 0 min 0 W/m 10,5 km/h (2 Bft)
30.12.2014 05:16 1,6 C 0,0 C 96 % 1035,8 hPa 0,0 l/m 0 min 0 min 0 W/m 10,5 km/h (2 Bft)
30.12.2014 05:18 1,6 C 0,0 C 96 % 1035,8 hPa 0,0 l/m 0 min 0 min 0 W/m 14,6 km/h (3 Bft)
30.12.2014 05:20 1,6 C 0,0 C 96 % 1035,8 hPa 0,0 l/m 0 min 0 min 0 W/m 10,5 km/h (2 Bft)
30.12.2014 05:22 1,5 C 0,0 C 97 % 1035,8 hPa 0,0 l/m 0 min 0 min 0 W/m 8,4 km/h (2 Bft)
30.12.2014 05:24 1,5 C 0,0 C 97 % 1035,7 hPa 0,0 l/m 0 min 0 min 0 W/m 8,4 km/h (2 Bft)
30.12.2014 05:26 1,5 C 0,0 C 97 % 1035,7 hPa 0,0 l/m 0 min 0 min 0 W/m 8,4 km/h (2 Bft)
30.12.2014 05:28 1,5 C 0,0 C 97 % 1035,7 hPa 0,0 l/m 0 min 0 min 0 W/m 12,6 km/h (3 Bft)
30.12.2014 05:30 1,5 C 0,0 C 97 % 1035,7 hPa 0,0 l/m 0 min 0 min 0 W/m 14,6 km/h (3 Bft)
30.12.2014 05:32 1,5 C 0,0 C 97 % 1035,7 hPa 0,0 l/m 0 min 0 min 0 W/m 14,6 km/h (3 Bft)
30.12.2014 05:34 1,5 C 0,0 C 97 % 1035,7 hPa 0,0 l/m 0 min 0 min 0 W/m 10,5 km/h (2 Bft)
30.12.2014 05:36 1,5 C 0,0 C 97 % 1035,7 hPa 0,0 l/m 0 min 0 min 0 W/m 10,5 km/h (2 Bft)
30.12.2014 05:38 1,5 C 0,0 C 97 % 1035,6 hPa 0,0 l/m 0 min 0 min 0 W/m 10,5 km/h (2 Bft)
30.12.2014 05:40 1,5 C 0,0 C 97 % 1035,6 hPa 0,0 l/m 0 min 0 min 0 W/m 12,6 km/h (3 Bft)
30.12.2014 05:42 1,5 C 0,0 C 97 % 1035,7 hPa 0,0 l/m 0 min 0 min 0 W/m 12,6 km/h (3 Bft)
30.12.2014 05:44 1,5 C 0,0 C 97 % 1035,6 hPa 0,0 l/m 0 min 0 min 0 W/m 12,6 km/h (3 Bft)
30.12.2014 05:46 1,5 C 0,0 C 97 % 1035,6 hPa 0,0 l/m 0 min 0 min 0 W/m 14,6 km/h (3 Bft)
30.12.2014 05:48 1,5 C 0,0 C 97 % 1035,6 hPa 0,0 l/m 0 min 0 min 0 W/m 8,4 km/h (2 Bft)
30.12.2014 05:50 1,5 C 0,0 C 97 % 1035,5 hPa 0,0 l/m 0 min 0 min 0 W/m 12,6 km/h (3 Bft)
30.12.2014 05:52 1,5 C 0,0 C 97 % 1035,6 hPa 0,0 l/m 0 min 0 min 0 W/m 8,4 km/h (2 Bft)
30.12.2014 05:54 1,5 C 0,0 C 97 % 1035,5 hPa 0,0 l/m 0 min 0 min 0 W/m 10,5 km/h (2 Bft)
30.12.2014 05:56 1,5 C 0,0 C 97 % 1035,6 hPa 0,0 l/m 0 min 0 min 0 W/m 8,4 km/h (2 Bft)
30.12.2014 05:58 1,5 C 0,0 C 97 % 1035,6 hPa 0,0 l/m 0 min 0 min 0 W/m 10,5 km/h (2 Bft)
30.12.2014 06:00 1,5 C 0,0 C 97 % 1035,6 hPa 0,0 l/m 0 min 0 min 0 W/m 10,5 km/h (2 Bft)
30.12.2014 06:02 1,5 C 0,6 C 97 % 1035,5 hPa 0,0 l/m 0 min 0 min 0 W/m 14,6 km/h (3 Bft)
30.12.2014 06:05 1,6 C 0,6 C 97 % 1035,6 hPa 0,0 l/m 0 min 0 min 0 W/m 12,6 km/h (3 Bft)
30.12.2014 06:08 1,6 C 0,6 C 97 % 1035,6 hPa 0,0 l/m 0 min 0 min 0 W/m 12,6 km/h (3 Bft)
30.12.2014 06:10 1,6 C 0,6 C 97 % 1035,5 hPa 0,0 l/m 0 min 0 min 0 W/m 14,6 km/h (3 Bft)
30.12.2014 06:12 1,6 C 0,6 C 97 % 1035,5 hPa 0,0 l/m 0 min 0 min 0 W/m 10,5 km/h (2 Bft)
30.12.2014 06:14 1,6 C 0,6 C 97 % 1035,5 hPa 0,0 l/m 0 min 0 min 0 W/m 6,3 km/h (2 Bft)
30.12.2014 06:16 1,6 C 0,6 C 97 % 1035,5 hPa 0,0 l/m 0 min 0 min 0 W/m 10,5 km/h (2 Bft)
30.12.2014 06:18 1,6 C 0,6 C 97 % 1035,6 hPa 0,0 l/m 0 min 0 min 0 W/m 12,6 km/h (3 Bft)
30.12.2014 06:20 1,6 C 0,6 C 97 % 1035,5 hPa 0,0 l/m 0 min 2 min 0 W/m 10,5 km/h (2 Bft)
30.12.2014 06:22 1,6 C 0,6 C 97 % 1035,5 hPa 0,0 l/m 0 min 2 min 0 W/m 12,6 km/h (3 Bft)
30.12.2014 06:24 1,6 C 0,6 C 97 % 1035,5 hPa 0,2 l/m 0 min 2 min 0 W/m 14,6 km/h (3 Bft)
30.12.2014 06:26 1,6 C 0,6 C 97 % 1035,5 hPa 0,0 l/m 0 min 2 min 0 W/m 12,6 km/h (3 Bft)
30.12.2014 06:28 1,6 C 0,6 C 97 % 1035,5 hPa 0,0 l/m 0 min 0 min 0 W/m 14,6 km/h (3 Bft)
30.12.2014 06:30 1,6 C 0,6 C 97 % 1035,5 hPa 0,0 l/m 0 min 0 min 0 W/m 12,6 km/h (3 Bft)
30.12.2014 06:32 1,6 C 0,6 C 97 % 1035,5 hPa 0,0 l/m 0 min 0 min 0 W/m 14,6 km/h (3 Bft)
30.12.2014 06:34 1,7 C 0,6 C 97 % 1035,5 hPa 0,0 l/m 0 min 0 min 0 W/m 16,7 km/h (3 Bft)
30.12.2014 06:36 1,7 C 0,6 C 97 % 1035,5 hPa 0,0 l/m 0 min 0 min 0 W/m 12,6 km/h (3 Bft)
30.12.2014 06:38 1,7 C 0,6 C 97 % 1035,5 hPa 0,0 l/m 0 min 0 min 0 W/m 12,6 km/h (3 Bft)
30.12.2014 06:40 1,7 C 0,6 C 97 % 1035,5 hPa 0,0 l/m 0 min 0 min 0 W/m 8,4 km/h (2 Bft)
30.12.2014 06:42 1,7 C 0,6 C 97 % 1035,5 hPa 0,0 l/m 0 min 0 min 0 W/m 10,5 km/h (2 Bft)
30.12.2014 06:44 1,7 C 0,6 C 97 % 1035,5 hPa 0,0 l/m 0 min 0 min 0 W/m 12,6 km/h (3 Bft)
30.12.2014 06:46 1,7 C 0,6 C 97 % 1035,5 hPa 0,0 l/m 0 min 0 min 0 W/m 10,5 km/h (2 Bft)
30.12.2014 06:48 1,7 C 0,6 C 97 % 1035,5 hPa 0,0 l/m 0 min 0 min 0 W/m 10,5 km/h (2 Bft)
30.12.2014 06:50 1,7 C 0,6 C 97 % 1035,4 hPa 0,0 l/m 0 min 0 min 0 W/m 10,5 km/h (2 Bft)
30.12.2014 06:52 1,7 C 0,6 C 97 % 1035,4 hPa 0,0 l/m 0 min 0 min 0 W/m 12,6 km/h (3 Bft)
30.12.2014 06:54 1,7 C 0,6 C 97 % 1035,5 hPa 0,0 l/m 0 min 0 min 0 W/m 16,7 km/h (3 Bft)
30.12.2014 06:56 1,7 C 0,6 C 97 % 1035,4 hPa 0,0 l/m 0 min 0 min 0 W/m 12,6 km/h (3 Bft)
30.12.2014 06:58 1,7 C 0,6 C 97 % 1035,5 hPa 0,0 l/m 0 min 0 min 0 W/m 16,7 km/h (3 Bft)
30.12.2014 07:00 1,7 C 0,6 C 97 % 1035,5 hPa 0,0 l/m 0 min 0 min 0 W/m 12,6 km/h (3 Bft)
30.12.2014 07:02 1,7 C 0,6 C 97 % 1035,4 hPa 0,0 l/m 0 min 0 min 0 W/m 8,4 km/h (2 Bft)
30.12.2014 07:04 1,7 C 0,6 C 97 % 1035,4 hPa 0,0 l/m 0 min 0 min 0 W/m 12,6 km/h (3 Bft)
30.12.2014 07:06 1,7 C 0,6 C 97 % 1035,5 hPa 0,0 l/m 0 min 0 min 0 W/m 10,5 km/h (2 Bft)
30.12.2014 07:08 1,7 C 0,6 C 97 % 1035,4 hPa 0,0 l/m 0 min 0 min 0 W/m 12,6 km/h (3 Bft)
30.12.2014 07:10 1,7 C 0,6 C 97 % 1035,4 hPa 0,0 l/m 0 min 0 min 0 W/m 8,4 km/h (2 Bft)
30.12.2014 07:12 1,7 C 0,0 C 97 % 1035,4 hPa 0,0 l/m 0 min 0 min 0 W/m 8,4 km/h (2 Bft)
30.12.2014 07:14 1,7 C 0,0 C 97 % 1035,4 hPa 0,0 l/m 0 min 0 min 0 W/m 8,4 km/h (2 Bft)
30.12.2014 07:16 1,7 C 0,0 C 97 % 1035,5 hPa 0,0 l/m 0 min 0 min 0 W/m 6,3 km/h (2 Bft)
30.12.2014 07:18 1,7 C 0,0 C 97 % 1035,4 hPa 0,0 l/m 0 min 0 min 0 W/m 6,3 km/h (2 Bft)
30.12.2014 07:20 1,7 C 0,0 C 97 % 1035,4 hPa 0,0 l/m 0 min 0 min 0 W/m 6,3 km/h (2 Bft)
30.12.2014 07:22 1,7 C 0,0 C 97 % 1035,4 hPa 0,0 l/m 0 min 0 min 0 W/m 6,3 km/h (2 Bft)
30.12.2014 07:24 1,7 C 0,0 C 97 % 1035,5 hPa 0,0 l/m 0 min 0 min 0 W/m 8,4 km/h (2 Bft)
30.12.2014 07:26 1,7 C 0,0 C 97 % 1035,5 hPa 0,0 l/m 0 min 0 min 0 W/m 6,3 km/h (2 Bft)
30.12.2014 07:28 1,6 C 0,0 C 97 % 1035,5 hPa 0,0 l/m 0 min 0 min 0 W/m 6,3 km/h (2 Bft)
30.12.2014 07:30 1,6 C 0,0 C 97 % 1035,5 hPa 0,0 l/m 0 min 0 min 0 W/m 14,6 km/h (3 Bft)
30.12.2014 07:32 1,6 C 0,0 C 97 % 1035,4 hPa 0,0 l/m 0 min 0 min 0 W/m 12,6 km/h (3 Bft)
30.12.2014 07:34 1,6 C 0,0 C 97 % 1035,5 hPa 0,0 l/m 0 min 0 min 0 W/m 8,4 km/h (2 Bft)
30.12.2014 07:36 1,6 C 0,6 C 97 % 1035,5 hPa 0,0 l/m 0 min 2 min 0 W/m 10,5 km/h (2 Bft)
30.12.2014 07:38 1,6 C 0,6 C 97 % 1035,5 hPa 0,2 l/m 0 min 2 min 0 W/m 10,5 km/h (2 Bft)
30.12.2014 07:40 1,6 C 0,6 C 97 % 1035,5 hPa 0,0 l/m 0 min 2 min 0 W/m 8,4 km/h (2 Bft)
30.12.2014 07:42 1,6 C 0,0 C 97 % 1035,5 hPa 0,0 l/m 0 min 0 min 0 W/m 6,3 km/h (2 Bft)
30.12.2014 07:44 1,6 C 0,0 C 97 % 1035,5 hPa 0,0 l/m 0 min 0 min 0 W/m 8,4 km/h (2 Bft)
30.12.2014 07:46 1,6 C 0,0 C 97 % 1035,5 hPa 0,0 l/m 0 min 0 min 0 W/m 6,3 km/h (2 Bft)
30.12.2014 07:48 1,6 C 0,0 C 97 % 1035,5 hPa 0,0 l/m 0 min 0 min 0 W/m 8,4 km/h (2 Bft)
30.12.2014 07:50 1,6 C 0,0 C 97 % 1035,4 hPa 0,0 l/m 0 min 0 min 0 W/m 8,4 km/h (2 Bft)
30.12.2014 07:52 1,6 C 0,0 C 97 % 1035,5 hPa 0,0 l/m 0 min 0 min 0 W/m 8,4 km/h (2 Bft)
30.12.2014 07:54 1,6 C 0,6 C 97 % 1035,6 hPa 0,0 l/m 0 min 0 min 0 W/m 6,3 km/h (2 Bft)
30.12.2014 07:56 1,6 C 0,0 C 97 % 1035,5 hPa 0,0 l/m 0 min 0 min 0 W/m 10,5 km/h (2 Bft)
30.12.2014 07:58 1,6 C 0,0 C 97 % 1035,4 hPa 0,0 l/m 0 min 0 min 0 W/m 8,4 km/h (2 Bft)
30.12.2014 08:00 1,6 C 0,0 C 97 % 1035,4 hPa 0,0 l/m 0 min 0 min 0 W/m 8,4 km/h (2 Bft)
30.12.2014 08:02 1,6 C 0,0 C 97 % 1035,5 hPa 0,0 l/m 0 min 0 min 0 W/m 10,5 km/h (2 Bft)
30.12.2014 08:04 1,6 C 0,0 C 97 % 1035,5 hPa 0,0 l/m 0 min 0 min 0 W/m 10,5 km/h (2 Bft)
30.12.2014 08:06 1,6 C 0,6 C 97 % 1035,5 hPa 0,0 l/m 0 min 0 min 0 W/m 14,6 km/h (3 Bft)
30.12.2014 08:08 1,6 C 0,6 C 97 % 1035,6 hPa 0,0 l/m 0 min 0 min 0 W/m 14,6 km/h (3 Bft)
30.12.2014 08:10 1,6 C 0,6 C 97 % 1035,6 hPa 0,0 l/m 0 min 2 min 0 W/m 14,6 km/h (3 Bft)
30.12.2014 08:12 1,7 C 0,6 C 97 % 1035,6 hPa 0,0 l/m 0 min 2 min 0 W/m 12,6 km/h (3 Bft)
30.12.2014 08:14 1,7 C 0,6 C 97 % 1035,6 hPa 0,0 l/m 0 min 2 min 0 W/m 14,6 km/h (3 Bft)
30.12.2014 08:16 1,7 C 0,6 C 97 % 1035,6 hPa 0,0 l/m 0 min 2 min 0 W/m 16,7 km/h (3 Bft)
30.12.2014 08:18 1,7 C 0,6 C 97 % 1035,6 hPa 0,0 l/m 0 min 2 min 0 W/m 10,5 km/h (2 Bft)
30.12.2014 08:20 1,7 C 0,6 C 97 % 1035,6 hPa 0,0 l/m 0 min 2 min 0 W/m 10,5 km/h (2 Bft)
30.12.2014 08:22 1,7 C 0,6 C 97 % 1035,7 hPa 0,0 l/m 0 min 2 min 0 W/m 12,6 km/h (3 Bft)
30.12.2014 08:24 1,8 C 0,6 C 97 % 1035,7 hPa 0,0 l/m 0 min 2 min 0 W/m 10,5 km/h (2 Bft)
30.12.2014 08:26 1,8 C 0,6 C 97 % 1035,7 hPa 0,0 l/m 0 min 2 min 0 W/m 8,4 km/h (2 Bft)
30.12.2014 08:28 1,8 C 0,6 C 97 % 1035,7 hPa 0,0 l/m 0 min 2 min 0 W/m 8,4 km/h (2 Bft)
30.12.2014 08:30 1,8 C 0,6 C 97 % 1035,7 hPa 0,0 l/m 0 min 2 min 0 W/m 8,4 km/h (2 Bft)
30.12.2014 08:32 1,9 C 0,6 C 97 % 1035,8 hPa 0,0 l/m 0 min 2 min 0 W/m 8,4 km/h (2 Bft)
30.12.2014 08:34 1,9 C 0,6 C 97 % 1035,9 hPa 0,0 l/m 0 min 0 min 0 W/m 8,4 km/h (2 Bft)
30.12.2014 08:36 1,9 C 0,6 C 97 % 1035,8 hPa 0,0 l/m 0 min 0 min 0 W/m 8,4 km/h (2 Bft)
30.12.2014 08:38 1,9 C 0,6 C 97 % 1035,8 hPa 0,0 l/m 0 min 0 min 0 W/m 8,4 km/h (2 Bft)
30.12.2014 08:40 1,9 C 0,6 C 97 % 1035,7 hPa 0,0 l/m 0 min 0 min 0 W/m 8,4 km/h (2 Bft)
30.12.2014 08:42 1,9 C 0,6 C 97 % 1035,7 hPa 0,0 l/m 0 min 0 min 0 W/m 8,4 km/h (2 Bft)
30.12.2014 08:44 1,9 C 0,6 C 97 % 1035,7 hPa 0,0 l/m 0 min 0 min 0 W/m 6,3 km/h (2 Bft)
30.12.2014 08:46 1,9 C 0,6 C 97 % 1035,6 hPa 0,0 l/m 0 min 0 min 0 W/m 10,5 km/h (2 Bft)
30.12.2014 08:48 1,9 C 0,6 C 97 % 1035,7 hPa 0,0 l/m 0 min 0 min 0 W/m 8,4 km/h (2 Bft)
30.12.2014 08:50 1,9 C 0,6 C 97 % 1035,6 hPa 0,0 l/m 0 min 0 min 3 W/m 8,4 km/h (2 Bft)
30.12.2014 08:52 1,8 C 0,6 C 97 % 1035,7 hPa 0,0 l/m 0 min 0 min 5 W/m 10,5 km/h (2 Bft)
30.12.2014 08:54 1,8 C 0,6 C 97 % 1035,7 hPa 0,0 l/m 0 min 0 min 5 W/m 10,5 km/h (2 Bft)
30.12.2014 08:56 1,8 C 0,6 C 97 % 1035,8 hPa 0,0 l/m 0 min 0 min 5 W/m 10,5 km/h (2 Bft)
30.12.2014 08:58 1,8 C 0,6 C 97 % 1035,8 hPa 0,0 l/m 0 min 0 min 5 W/m 8,4 km/h (2 Bft)
30.12.2014 09:00 1,8 C 0,6 C 97 % 1035,7 hPa 0,0 l/m 0 min 0 min 5 W/m 10,5 km/h (2 Bft)
30.12.2014 09:02 1,8 C 0,6 C 97 % 1035,6 hPa 0,0 l/m 0 min 0 min 5 W/m 10,5 km/h (2 Bft)
30.12.2014 09:04 1,8 C 0,6 C 97 % 1035,7 hPa 0,0 l/m 0 min 0 min 7 W/m 14,6 km/h (3 Bft)
30.12.2014 09:06 1,8 C 0,6 C 97 % 1035,6 hPa 0,0 l/m 0 min 0 min 8 W/m 12,6 km/h (3 Bft)
30.12.2014 09:08 1,8 C 0,6 C 97 % 1035,7 hPa 0,0 l/m 0 min 0 min 9 W/m 14,6 km/h (3 Bft)
30.12.2014 09:10 1,8 C 0,6 C 97 % 1035,6 hPa 0,0 l/m 0 min 0 min 11 W/m 14,6 km/h (3 Bft)
30.12.2014 09:12 1,8 C 0,6 C 97 % 1035,6 hPa 0,0 l/m 0 min 0 min 12 W/m 14,6 km/h (3 Bft)
30.12.2014 09:14 1,8 C 0,6 C 97 % 1035,7 hPa 0,2 l/m 0 min 0 min 12 W/m 10,5 km/h (2 Bft)
30.12.2014 09:16 1,8 C 0,6 C 97 % 1035,6 hPa 0,0 l/m 0 min 0 min 14 W/m 10,5 km/h (2 Bft)
30.12.2014 09:18 1,8 C 0,6 C 97 % 1035,6 hPa 0,0 l/m 0 min 0 min 14 W/m 12,6 km/h (3 Bft)
30.12.2014 09:20 1,8 C 0,6 C 97 % 1035,6 hPa 0,0 l/m 0 min 0 min 14 W/m 10,5 km/h (2 Bft)
30.12.2014 09:22 1,8 C 0,6 C 97 % 1035,5 hPa 0,0 l/m 0 min 0 min 15 W/m 8,4 km/h (2 Bft)
30.12.2014 09:24 1,8 C 0,6 C 97 % 1035,6 hPa 0,0 l/m 0 min 0 min 17 W/m 8,4 km/h (2 Bft)
30.12.2014 09:26 1,8 C 0,6 C 97 % 1035,6 hPa 0,0 l/m 0 min 0 min 18 W/m 6,3 km/h (2 Bft)
30.12.2014 09:28 1,8 C 0,6 C 97 % 1035,6 hPa 0,0 l/m 0 min 0 min 20 W/m 8,4 km/h (2 Bft)
30.12.2014 09:30 1,7 C 0,6 C 97 % 1035,6 hPa 0,0 l/m 0 min 0 min 22 W/m 8,4 km/h (2 Bft)
30.12.2014 09:32 1,8 C 0,6 C 97 % 1035,6 hPa 0,0 l/m 0 min 0 min 23 W/m 8,4 km/h (2 Bft)
30.12.2014 09:34 1,7 C 0,6 C 97 % 1035,6 hPa 0,0 l/m 0 min 0 min 23 W/m 8,4 km/h (2 Bft)
30.12.2014 09:36 1,7 C 0,6 C 97 % 1035,6 hPa 0,0 l/m 0 min 0 min 25 W/m 6,3 km/h (2 Bft)
30.12.2014 09:38 1,7 C 0,6 C 97 % 1035,6 hPa 0,0 l/m 0 min 0 min 26 W/m 6,3 km/h (2 Bft)
30.12.2014 09:40 1,7 C 0,6 C 97 % 1035,6 hPa 0,0 l/m 0 min 0 min 28 W/m 8,4 km/h (2 Bft)
30.12.2014 09:42 1,7 C 0,6 C 97 % 1035,6 hPa 0,0 l/m 0 min 0 min 28 W/m 6,3 km/h (2 Bft)
30.12.2014 09:44 1,7 C 0,6 C 97 % 1035,6 hPa 0,0 l/m 0 min 0 min 28 W/m 8,4 km/h (2 Bft)
30.12.2014 09:46 1,8 C 0,6 C 97 % 1035,5 hPa 0,0 l/m 0 min 0 min 29 W/m 10,5 km/h (2 Bft)
30.12.2014 09:48 1,8 C 0,6 C 97 % 1035,6 hPa 0,0 l/m 0 min 0 min 28 W/m 8,4 km/h (2 Bft)
30.12.2014 09:50 1,8 C 0,6 C 97 % 1035,5 hPa 0,0 l/m 0 min 0 min 31 W/m 8,4 km/h (2 Bft)
30.12.2014 09:52 1,8 C 0,6 C 97 % 1035,5 hPa 0,0 l/m 0 min 0 min 32 W/m 8,4 km/h (2 Bft)
30.12.2014 09:54 1,8 C 0,6 C 97 % 1035,5 hPa 0,0 l/m 0 min 0 min 32 W/m 6,3 km/h (2 Bft)
30.12.2014 09:56 1,8 C 0,6 C 97 % 1035,5 hPa 0,0 l/m 0 min 0 min 32 W/m 6,3 km/h (2 Bft)
30.12.2014 09:58 1,8 C 1,1 C 98 % 1035,5 hPa 0,0 l/m 0 min 0 min 32 W/m 6,3 km/h (2 Bft)
30.12.2014 10:00 1,8 C 0,6 C 97 % 1035,4 hPa 0,0 l/m 0 min 0 min 33 W/m 6,3 km/h (2 Bft)
30.12.2014 10:02 1,8 C 0,6 C 98 % 1035,3 hPa 0,0 l/m 0 min 0 min 32 W/m 8,4 km/h (2 Bft)
30.12.2014 10:04 1,8 C 1,1 C 97 % 1035,4 hPa 0,0 l/m 0 min 0 min 36 W/m 8,4 km/h (2 Bft)
30.12.2014 10:06 1,8 C 1,1 C 97 % 1035,4 hPa 0,0 l/m 0 min 0 min 39 W/m 8,4 km/h (2 Bft)
30.12.2014 10:08 1,8 C 0,6 C 97 % 1035,4 hPa 0,0 l/m 0 min 0 min 46 W/m 6,3 km/h (2 Bft)
30.12.2014 10:10 1,9 C 1,1 C 97 % 1035,5 hPa 0,0 l/m 0 min 0 min 54 W/m 8,4 km/h (2 Bft)
30.12.2014 10:12 1,9 C 1,1 C 97 % 1035,5 hPa 0,0 l/m 0 min 0 min 60 W/m 6,3 km/h (2 Bft)
30.12.2014 10:14 1,9 C 1,1 C 97 % 1035,5 hPa 0,0 l/m 0 min 0 min 53 W/m 6,3 km/h (2 Bft)
30.12.2014 10:16 1,9 C 1,1 C 97 % 1035,6 hPa 0,0 l/m 0 min 0 min 44 W/m 8,4 km/h (2 Bft)
30.12.2014 10:18 1,9 C 1,1 C 97 % 1035,6 hPa 0,0 l/m 0 min 0 min 40 W/m 6,3 km/h (2 Bft)
30.12.2014 10:20 1,9 C 1,1 C 97 % 1035,6 hPa 0,0 l/m 0 min 0 min 37 W/m 8,4 km/h (2 Bft)
30.12.2014 10:22 2,0 C 1,1 C 97 % 1035,6 hPa 0,0 l/m 0 min 0 min 37 W/m 8,4 km/h (2 Bft)
30.12.2014 10:24 2,0 C 1,1 C 97 % 1035,6 hPa 0,0 l/m 0 min 0 min 39 W/m 8,4 km/h (2 Bft)
30.12.2014 10:26 2,0 C 1,1 C 97 % 1035,6 hPa 0,0 l/m 0 min 0 min 39 W/m 8,4 km/h (2 Bft)
30.12.2014 10:28 2,0 C 1,1 C 97 % 1035,6 hPa 0,0 l/m 0 min 0 min 41 W/m 8,4 km/h (2 Bft)
30.12.2014 10:30 2,1 C 1,1 C 98 % 1035,6 hPa 0,0 l/m 0 min 0 min 45 W/m 8,4 km/h (2 Bft)
30.12.2014 10:32 2,1 C 1,1 C 98 % 1035,7 hPa 0,0 l/m 0 min 0 min 45 W/m 10,5 km/h (2 Bft)
30.12.2014 10:34 2,1 C 1,1 C 98 % 1035,7 hPa 0,0 l/m 0 min 0 min 43 W/m 6,3 km/h (2 Bft)
30.12.2014 10:36 2,1 C 1,1 C 98 % 1035,7 hPa 0,0 l/m 0 min 0 min 48 W/m 8,4 km/h (2 Bft)
30.12.2014 10:38 2,1 C 1,1 C 98 % 1035,7 hPa 0,0 l/m 0 min 0 min 63 W/m 8,4 km/h (2 Bft)
30.12.2014 10:40 2,1 C 1,1 C 98 % 1035,7 hPa 0,0 l/m 0 min 0 min 58 W/m 10,5 km/h (2 Bft)
30.12.2014 10:42 2,1 C 1,1 C 98 % 1035,7 hPa 0,0 l/m 0 min 0 min 56 W/m 8,4 km/h (2 Bft)
30.12.2014 10:44 2,1 C 1,1 C 98 % 1035,7 hPa 0,0 l/m 0 min 0 min 58 W/m 8,4 km/h (2 Bft)
30.12.2014 10:46 2,1 C 1,1 C 98 % 1035,6 hPa 0,2 l/m 0 min 0 min 61 W/m 8,4 km/h (2 Bft)
30.12.2014 10:48 2,2 C 1,1 C 98 % 1035,6 hPa 0,0 l/m 0 min 0 min 62 W/m 10,5 km/h (2 Bft)
30.12.2014 10:50 2,2 C 1,1 C 98 % 1035,6 hPa 0,0 l/m 0 min 0 min 61 W/m 12,6 km/h (3 Bft)
30.12.2014 10:52 2,2 C 1,7 C 98 % 1035,6 hPa 0,0 l/m 0 min 0 min 57 W/m 6,3 km/h (2 Bft)
30.12.2014 10:54 2,2 C 1,1 C 98 % 1035,6 hPa 0,0 l/m 0 min 0 min 54 W/m 8,4 km/h (2 Bft)
30.12.2014 10:56 2,2 C 1,1 C 98 % 1035,7 hPa 0,0 l/m 0 min 0 min 54 W/m 8,4 km/h (2 Bft)
30.12.2014 10:58 2,2 C 1,1 C 98 % 1035,6 hPa 0,0 l/m 0 min 0 min 57 W/m 10,5 km/h (2 Bft)
30.12.2014 11:00 2,2 C 1,1 C 98 % 1035,6 hPa 0,0 l/m 0 min 0 min 58 W/m 8,4 km/h (2 Bft)
30.12.2014 11:02 2,3 C 1,1 C 98 % 1035,6 hPa 0,0 l/m 0 min 0 min 55 W/m 10,5 km/h (2 Bft)
30.12.2014 11:04 2,3 C 1,1 C 98 % 1035,6 hPa 0,0 l/m 0 min 0 min 55 W/m 10,5 km/h (2 Bft)
30.12.2014 11:06 2,3 C 1,7 C 98 % 1035,6 hPa 0,0 l/m 0 min 0 min 60 W/m 10,5 km/h (2 Bft)
30.12.2014 11:08 2,3 C 1,7 C 98 % 1035,6 hPa 0,0 l/m 0 min 0 min 64 W/m 10,5 km/h (2 Bft)
30.12.2014 11:10 2,3 C 1,7 C 98 % 1035,6 hPa 0,0 l/m 0 min 0 min 67 W/m 10,5 km/h (2 Bft)
30.12.2014 11:12 2,3 C 1,7 C 98 % 1035,6 hPa 0,0 l/m 0 min 0 min 68 W/m 8,4 km/h (2 Bft)
30.12.2014 11:14 2,3 C 1,7 C 98 % 1035,6 hPa 0,0 l/m 0 min 0 min 67 W/m 8,4 km/h (2 Bft)
30.12.2014 11:16 2,3 C 1,7 C 98 % 1035,6 hPa 0,0 l/m 0 min 0 min 67 W/m 6,3 km/h (2 Bft)
30.12.2014 11:18 2,3 C 1,7 C 98 % 1035,6 hPa 0,0 l/m 0 min 0 min 66 W/m 8,4 km/h (2 Bft)
30.12.2014 11:20 2,3 C 1,7 C 98 % 1035,6 hPa 0,0 l/m 0 min 0 min 70 W/m 10,5 km/h (2 Bft)
30.12.2014 11:22 2,4 C 1,7 C 98 % 1035,5 hPa 0,0 l/m 0 min 0 min 70 W/m 10,5 km/h (2 Bft)
30.12.2014 11:24 2,4 C 1,7 C 98 % 1035,5 hPa 0,0 l/m 0 min 0 min 72 W/m 8,4 km/h (2 Bft)
30.12.2014 11:26 2,4 C 1,7 C 98 % 1035,5 hPa 0,0 l/m 0 min 0 min 70 W/m 10,5 km/h (2 Bft)
30.12.2014 11:28 2,4 C 1,7 C 98 % 1035,5 hPa 0,0 l/m 0 min 0 min 60 W/m 8,4 km/h (2 Bft)
30.12.2014 11:30 2,4 C 1,7 C 98 % 1035,5 hPa 0,0 l/m 0 min 0 min 54 W/m 8,4 km/h (2 Bft)
30.12.2014 11:32 2,4 C 1,7 C 98 % 1035,5 hPa 0,0 l/m 0 min 0 min 60 W/m 10,5 km/h (2 Bft)
30.12.2014 11:34 2,4 C 1,7 C 98 % 1035,5 hPa 0,0 l/m 0 min 0 min 73 W/m 10,5 km/h (2 Bft)
30.12.2014 11:36 2,4 C 1,7 C 98 % 1035,4 hPa 0,0 l/m 0 min 0 min 84 W/m 8,4 km/h (2 Bft)
30.12.2014 11:38 2,4 C 1,7 C 98 % 1035,4 hPa 0,0 l/m 0 min 0 min 84 W/m 10,5 km/h (2 Bft)
30.12.2014 11:40 2,4 C 1,7 C 98 % 1035,4 hPa 0,0 l/m 0 min 0 min 86 W/m 12,6 km/h (3 Bft)
30.12.2014 11:42 2,4 C 1,7 C 98 % 1035,3 hPa 0,0 l/m 0 min 0 min 82 W/m 8,4 km/h (2 Bft)
30.12.2014 11:44 2,5 C 1,7 C 98 % 1035,4 hPa 0,0 l/m 0 min 0 min 79 W/m 10,5 km/h (2 Bft)
30.12.2014 11:46 2,5 C 1,7 C 98 % 1035,3 hPa 0,0 l/m 0 min 0 min 84 W/m 8,4 km/h (2 Bft)
30.12.2014 11:48 2,5 C 1,7 C 98 % 1035,3 hPa 0,0 l/m 0 min 0 min 91 W/m 8,4 km/h (2 Bft)
30.12.2014 11:50 2,5 C 1,7 C 98 % 1035,4 hPa 0,0 l/m 0 min 0 min 96 W/m 8,4 km/h (2 Bft)
30.12.2014 11:52 2,6 C 1,7 C 98 % 1035,4 hPa 0,0 l/m 0 min 0 min 90 W/m 14,6 km/h (3 Bft)
30.12.2014 11:54 2,6 C 1,7 C 98 % 1035,4 hPa 0,0 l/m 0 min 0 min 90 W/m 10,5 km/h (2 Bft)
30.12.2014 11:56 2,6 C 1,7 C 98 % 1035,3 hPa 0,0 l/m 0 min 0 min 91 W/m 12,6 km/h (3 Bft)
30.12.2014 11:58 2,6 C 1,7 C 98 % 1035,3 hPa 0,0 l/m 0 min 0 min 77 W/m 12,6 km/h (3 Bft)
30.12.2014 12:00 2,6 C 1,7 C 98 % 1035,3 hPa 0,0 l/m 0 min 0 min 80 W/m 14,6 km/h (3 Bft)
30.12.2014 12:03 2,7 C 1,7 C 98 % 1035,2 hPa 0,0 l/m 0 min 0 min 97 W/m 12,6 km/h (3 Bft)
30.12.2014 12:05 2,7 C 1,7 C 98 % 1035,3 hPa 0,0 l/m 0 min 0 min 89 W/m 12,6 km/h (3 Bft)
30.12.2014 12:08 2,7 C 1,7 C 98 % 1035,3 hPa 0,0 l/m 0 min 0 min 97 W/m 8,4 km/h (2 Bft)
30.12.2014 12:10 2,7 C 1,7 C 98 % 1035,3 hPa 0,0 l/m 0 min 0 min 97 W/m 10,5 km/h (2 Bft)
30.12.2014 12:12 2,8 C 1,7 C 98 % 1035,3 hPa 0,0 l/m 0 min 0 min 104 W/m 10,5 km/h (2 Bft)
30.12.2014 12:14 2,8 C 1,7 C 98 % 1035,3 hPa 0,0 l/m 0 min 0 min 101 W/m 10,5 km/h (2 Bft)
30.12.2014 12:16 2,8 C 1,7 C 98 % 1035,3 hPa 0,0 l/m 0 min 0 min 109 W/m 10,5 km/h (2 Bft)
30.12.2014 12:18 2,8 C 2,2 C 98 % 1035,3 hPa 0,0 l/m 0 min 0 min 112 W/m 14,6 km/h (3 Bft)
30.12.2014 12:20 2,8 C 2,2 C 98 % 1035,3 hPa 0,0 l/m 0 min 0 min 116 W/m 14,6 km/h (3 Bft)
30.12.2014 12:22 2,9 C 2,2 C 98 % 1035,3 hPa 0,0 l/m 0 min 0 min 120 W/m 16,7 km/h (3 Bft)
30.12.2014 12:24 2,9 C 2,2 C 98 % 1035,2 hPa 0,0 l/m 2 min 0 min 137 W/m 10,5 km/h (2 Bft)
30.12.2014 12:26 2,9 C 2,2 C 98 % 1035,3 hPa 0,0 l/m 2 min 0 min 139 W/m 10,5 km/h (2 Bft)
30.12.2014 12:28 3,0 C 2,2 C 98 % 1035,2 hPa 0,0 l/m 2 min 0 min 152 W/m 8,4 km/h (2 Bft)
30.12.2014 12:30 3,0 C 2,2 C 98 % 1035,2 hPa 0,0 l/m 2 min 0 min 208 W/m 10,5 km/h (2 Bft)
30.12.2014 12:32 3,1 C 2,2 C 98 % 1035,2 hPa 0,0 l/m 2 min 0 min 280 W/m 12,6 km/h (3 Bft)
30.12.2014 12:34 3,1 C 2,2 C 98 % 1035,2 hPa 0,0 l/m 2 min 0 min 219 W/m 18,8 km/h (3 Bft)
30.12.2014 12:36 3,2 C 2,2 C 98 % 1035,2 hPa 0,0 l/m 2 min 0 min 176 W/m 14,6 km/h (3 Bft)
30.12.2014 12:38 3,3 C 2,8 C 98 % 1035,2 hPa 0,0 l/m 2 min 0 min 148 W/m 18,8 km/h (3 Bft)
30.12.2014 12:40 3,3 C 2,8 C 98 % 1035,2 hPa 0,0 l/m 2 min 0 min 148 W/m 14,6 km/h (3 Bft)
30.12.2014 12:42 3,3 C 2,8 C 98 % 1035,2 hPa 0,0 l/m 0 min 0 min 135 W/m 14,6 km/h (3 Bft)
30.12.2014 12:44 3,4 C 2,8 C 98 % 1035,1 hPa 0,0 l/m 0 min 0 min 123 W/m 12,6 km/h (3 Bft)
30.12.2014 12:46 3,4 C 2,8 C 98 % 1035,1 hPa 0,0 l/m 0 min 0 min 118 W/m 14,6 km/h (3 Bft)
30.12.2014 12:48 3,5 C 2,8 C 98 % 1035,0 hPa 0,0 l/m 0 min 0 min 128 W/m 12,6 km/h (3 Bft)
30.12.2014 12:50 3,5 C 2,8 C 98 % 1035,0 hPa 0,0 l/m 2 min 0 min 139 W/m 6,3 km/h (2 Bft)
30.12.2014 12:52 3,6 C 2,8 C 98 % 1035,0 hPa 0,0 l/m 2 min 0 min 162 W/m 12,6 km/h (3 Bft)
30.12.2014 12:54 3,6 C 2,8 C 98 % 1035,0 hPa 0,0 l/m 2 min 0 min 148 W/m 16,7 km/h (3 Bft)
30.12.2014 12:56 3,6 C 2,8 C 98 % 1035,0 hPa 0,0 l/m 0 min 0 min 134 W/m 14,6 km/h (3 Bft)
30.12.2014 12:58 3,7 C 2,8 C 98 % 1035,0 hPa 0,0 l/m 0 min 0 min 114 W/m 10,5 km/h (2 Bft)
30.12.2014 13:00 3,7 C 2,8 C 98 % 1034,9 hPa 0,0 l/m 0 min 0 min 117 W/m 16,7 km/h (3 Bft)
30.12.2014 13:02 3,7 C 2,8 C 98 % 1034,9 hPa 0,0 l/m 0 min 0 min 107 W/m 16,7 km/h (3 Bft)
30.12.2014 13:04 3,7 C 2,8 C 98 % 1034,9 hPa 0,0 l/m 0 min 0 min 109 W/m 16,7 km/h (3 Bft)
30.12.2014 13:06 3,8 C 2,8 C 98 % 1034,8 hPa 0,0 l/m 0 min 0 min 110 W/m 8,4 km/h (2 Bft)
30.12.2014 13:08 3,8 C 2,8 C 98 % 1034,9 hPa 0,0 l/m 0 min 0 min 113 W/m 10,5 km/h (2 Bft)
30.12.2014 13:10 3,8 C 2,8 C 98 % 1034,9 hPa 0,0 l/m 0 min 0 min 115 W/m 16,7 km/h (3 Bft)
30.12.2014 13:12 3,8 C 2,8 C 98 % 1034,8 hPa 0,0 l/m 0 min 0 min 123 W/m 10,5 km/h (2 Bft)
30.12.2014 13:14 3,8 C 2,8 C 98 % 1034,8 hPa 0,0 l/m 2 min 0 min 141 W/m 12,6 km/h (3 Bft)
30.12.2014 13:16 3,8 C 2,8 C 97 % 1034,8 hPa 0,0 l/m 0 min 0 min 123 W/m 12,6 km/h (3 Bft)
30.12.2014 13:18 3,8 C 2,8 C 97 % 1034,7 hPa 0,0 l/m 0 min 0 min 126 W/m 10,5 km/h (2 Bft)
30.12.2014 13:20 3,8 C 2,8 C 97 % 1034,8 hPa 0,0 l/m 0 min 0 min 126 W/m 10,5 km/h (2 Bft)
30.12.2014 13:22 3,9 C 2,8 C 97 % 1034,9 hPa 0,0 l/m 0 min 0 min 127 W/m 14,6 km/h (3 Bft)
30.12.2014 13:24 3,9 C 2,8 C 97 % 1034,9 hPa 0,0 l/m 0 min 0 min 128 W/m 8,4 km/h (2 Bft)
30.12.2014 13:26 3,9 C 2,8 C 97 % 1034,8 hPa 0,0 l/m 0 min 0 min 123 W/m 8,4 km/h (2 Bft)
30.12.2014 13:28 3,9 C 2,8 C 97 % 1034,8 hPa 0,0 l/m 0 min 0 min 114 W/m 10,5 km/h (2 Bft)
30.12.2014 13:30 3,9 C 2,8 C 97 % 1034,9 hPa 0,0 l/m 0 min 0 min 102 W/m 16,7 km/h (3 Bft)
30.12.2014 13:32 3,9 C 2,8 C 97 % 1034,9 hPa 0,0 l/m 0 min 0 min 94 W/m 8,4 km/h (2 Bft)
30.12.2014 13:34 3,9 C 2,8 C 97 % 1034,9 hPa 0,0 l/m 0 min 0 min 70 W/m 8,4 km/h (2 Bft)
30.12.2014 13:36 3,9 C 2,8 C 97 % 1034,9 hPa 0,0 l/m 0 min 0 min 76 W/m 12,6 km/h (3 Bft)
30.12.2014 13:38 4,0 C 2,8 C 97 % 1034,8 hPa 0,0 l/m 0 min 0 min 81 W/m 8,4 km/h (2 Bft)
30.12.2014 13:40 4,0 C 2,8 C 97 % 1034,9 hPa 0,0 l/m 0 min 0 min 84 W/m 14,6 km/h (3 Bft)
30.12.2014 13:42 3,9 C 2,8 C 97 % 1034,8 hPa 0,0 l/m 0 min 0 min 80 W/m 8,4 km/h (2 Bft)
30.12.2014 13:44 3,9 C 2,8 C 97 % 1034,8 hPa 0,0 l/m 0 min 0 min 76 W/m 8,4 km/h (2 Bft)
30.12.2014 13:46 3,9 C 2,8 C 97 % 1034,9 hPa 0,0 l/m 0 min 0 min 79 W/m 10,5 km/h (2 Bft)
30.12.2014 13:48 3,9 C 2,8 C 97 % 1034,9 hPa 0,0 l/m 0 min 0 min 81 W/m 10,5 km/h (2 Bft)
30.12.2014 13:50 3,9 C 2,8 C 97 % 1034,8 hPa 0,0 l/m 0 min 0 min 78 W/m 12,6 km/h (3 Bft)
30.12.2014 13:52 3,9 C 2,8 C 97 % 1034,8 hPa 0,0 l/m 0 min 0 min 75 W/m 12,6 km/h (3 Bft)
30.12.2014 13:54 4,0 C 2,8 C 96 % 1034,8 hPa 0,0 l/m 0 min 0 min 77 W/m 10,5 km/h (2 Bft)
30.12.2014 13:56 3,9 C 2,8 C 96 % 1034,7 hPa 0,0 l/m 0 min 0 min 77 W/m 10,5 km/h (2 Bft)
30.12.2014 13:58 3,9 C 2,8 C 96 % 1034,8 hPa 0,0 l/m 0 min 0 min 76 W/m 8,4 km/h (2 Bft)
30.12.2014 14:00 3,9 C 2,8 C 96 % 1034,7 hPa 0,0 l/m 0 min 0 min 76 W/m 10,5 km/h (2 Bft)
30.12.2014 14:02 3,9 C 2,8 C 96 % 1034,8 hPa 0,0 l/m 0 min 0 min 77 W/m 10,5 km/h (2 Bft)
30.12.2014 14:04 3,9 C 2,8 C 96 % 1034,9 hPa 0,0 l/m 0 min 0 min 77 W/m 10,5 km/h (2 Bft)
30.12.2014 14:06 3,9 C 2,8 C 96 % 1034,8 hPa 0,0 l/m 0 min 0 min 75 W/m 8,4 km/h (2 Bft)
30.12.2014 14:08 3,9 C 2,8 C 96 % 1034,8 hPa 0,0 l/m 0 min 0 min 72 W/m 10,5 km/h (2 Bft)
30.12.2014 14:10 3,9 C 2,8 C 96 % 1034,8 hPa 0,0 l/m 0 min 0 min 74 W/m 10,5 km/h (2 Bft)
30.12.2014 14:12 3,9 C 2,8 C 96 % 1034,8 hPa 0,0 l/m 0 min 0 min 77 W/m 8,4 km/h (2 Bft)
30.12.2014 14:14 4,0 C 2,8 C 96 % 1034,8 hPa 0,0 l/m 0 min 0 min 76 W/m 8,4 km/h (2 Bft)
30.12.2014 14:16 4,0 C 2,8 C 95 % 1034,7 hPa 0,0 l/m 0 min 0 min 71 W/m 6,3 km/h (2 Bft)
30.12.2014 14:18 4,0 C 2,8 C 95 % 1034,7 hPa 0,0 l/m 0 min 0 min 70 W/m 8,4 km/h (2 Bft)
30.12.2014 14:20 4,0 C 2,8 C 95 % 1034,7 hPa 0,0 l/m 0 min 0 min 68 W/m 8,4 km/h (2 Bft)
30.12.2014 14:22 4,0 C 2,8 C 95 % 1034,7 hPa 0,0 l/m 0 min 0 min 64 W/m 10,5 km/h (2 Bft)
30.12.2014 14:24 4,0 C 2,8 C 95 % 1034,7 hPa 0,0 l/m 0 min 0 min 54 W/m 10,5 km/h (2 Bft)
30.12.2014 14:26 4,0 C 2,8 C 95 % 1034,7 hPa 0,0 l/m 0 min 0 min 48 W/m 10,5 km/h (2 Bft)
30.12.2014 14:28 4,0 C 2,2 C 95 % 1034,7 hPa 0,0 l/m 0 min 0 min 46 W/m 8,4 km/h (2 Bft)
30.12.2014 14:30 3,9 C 2,2 C 95 % 1034,7 hPa 0,0 l/m 0 min 0 min 44 W/m 6,3 km/h (2 Bft)
30.12.2014 14:32 3,9 C 2,2 C 95 % 1034,7 hPa 0,0 l/m 0 min 0 min 46 W/m 6,3 km/h (2 Bft)
30.12.2014 14:34 3,9 C 2,2 C 95 % 1034,7 hPa 0,0 l/m 0 min 0 min 49 W/m 8,4 km/h (2 Bft)
30.12.2014 14:36 3,9 C 2,2 C 95 % 1034,7 hPa 0,0 l/m 0 min 0 min 46 W/m 6,3 km/h (2 Bft)
30.12.2014 14:38 3,9 C 2,2 C 95 % 1034,6 hPa 0,0 l/m 0 min 0 min 44 W/m 8,4 km/h (2 Bft)
30.12.2014 14:40 3,9 C 2,2 C 94 % 1034,7 hPa 0,0 l/m 0 min 0 min 38 W/m 12,6 km/h (3 Bft)
30.12.2014 14:42 3,9 C 2,2 C 94 % 1034,6 hPa 0,0 l/m 0 min 0 min 37 W/m 8,4 km/h (2 Bft)
30.12.2014 14:44 3,9 C 2,2 C 94 % 1034,7 hPa 0,0 l/m 0 min 0 min 34 W/m 8,4 km/h (2 Bft)
30.12.2014 14:46 3,8 C 2,2 C 94 % 1034,6 hPa 0,0 l/m 0 min 0 min 33 W/m 12,6 km/h (3 Bft)
30.12.2014 14:48 3,8 C 2,2 C 94 % 1034,7 hPa 0,0 l/m 0 min 0 min 33 W/m 8,4 km/h (2 Bft)
30.12.2014 14:50 3,8 C 2,2 C 94 % 1034,7 hPa 0,0 l/m 0 min 0 min 35 W/m 8,4 km/h (2 Bft)
30.12.2014 14:52 3,8 C 2,2 C 94 % 1034,7 hPa 0,0 l/m 0 min 0 min 34 W/m 8,4 km/h (2 Bft)
30.12.2014 14:54 3,8 C 2,2 C 94 % 1034,6 hPa 0,0 l/m 0 min 0 min 32 W/m 10,5 km/h (2 Bft)
30.12.2014 14:56 3,8 C 2,2 C 94 % 1034,6 hPa 0,0 l/m 0 min 0 min 28 W/m 10,5 km/h (2 Bft)
30.12.2014 14:58 3,8 C 2,2 C 94 % 1034,7 hPa 0,0 l/m 0 min 0 min 25 W/m 8,4 km/h (2 Bft)
30.12.2014 15:00 3,8 C 2,2 C 94 % 1034,7 hPa 0,0 l/m 0 min 0 min 23 W/m 8,4 km/h (2 Bft)
30.12.2014 15:02 3,7 C 2,2 C 94 % 1034,7 hPa 0,0 l/m 0 min 0 min 20 W/m 10,5 km/h (2 Bft)
30.12.2014 15:04 3,7 C 2,2 C 94 % 1034,7 hPa 0,0 l/m 0 min 0 min 18 W/m 8,4 km/h (2 Bft)
30.12.2014 15:06 3,7 C 2,2 C 93 % 1034,6 hPa 0,0 l/m 0 min 0 min 17 W/m 8,4 km/h (2 Bft)
30.12.2014 15:08 3,7 C 2,2 C 93 % 1034,6 hPa 0,0 l/m 0 min 0 min 16 W/m 8,4 km/h (2 Bft)
30.12.2014 15:10 3,7 C 1,7 C 93 % 1034,6 hPa 0,0 l/m 0 min 0 min 14 W/m 6,3 km/h (2 Bft)
30.12.2014 15:12 3,7 C 1,7 C 93 % 1034,6 hPa 0,0 l/m 0 min 0 min 14 W/m 10,5 km/h (2 Bft)
30.12.2014 15:14 3,7 C 1,7 C 93 % 1034,7 hPa 0,0 l/m 0 min 0 min 14 W/m 8,4 km/h (2 Bft)
30.12.2014 15:16 3,7 C 1,7 C 93 % 1034,6 hPa 0,0 l/m 0 min 0 min 16 W/m 6,3 km/h (2 Bft)
30.12.2014 15:18 3,7 C 1,7 C 93 % 1034,6 hPa 0,0 l/m 0 min 0 min 16 W/m 6,3 km/h (2 Bft)
30.12.2014 15:20 3,7 C 1,7 C 93 % 1034,6 hPa 0,0 l/m 0 min 0 min 14 W/m 6,3 km/h (2 Bft)
30.12.2014 15:22 3,6 C 1,7 C 93 % 1034,6 hPa 0,0 l/m 0 min 0 min 14 W/m 6,3 km/h (2 Bft)
30.12.2014 15:24 3,6 C 1,7 C 93 % 1034,6 hPa 0,0 l/m 0 min 0 min 15 W/m 8,4 km/h (2 Bft)
30.12.2014 15:26 3,6 C 1,7 C 93 % 1034,5 hPa 0,0 l/m 0 min 0 min 16 W/m 8,4 km/h (2 Bft)
30.12.2014 15:28 3,6 C 1,7 C 93 % 1034,5 hPa 0,0 l/m 0 min 0 min 16 W/m 6,3 km/h (2 Bft)
30.12.2014 15:30 3,6 C 1,7 C 93 % 1034,6 hPa 0,0 l/m 0 min 0 min 16 W/m 6,3 km/h (2 Bft)
30.12.2014 15:32 3,5 C 1,7 C 93 % 1034,6 hPa 0,0 l/m 0 min 0 min 16 W/m 8,4 km/h (2 Bft)
30.12.2014 15:34 3,5 C 1,7 C 93 % 1034,6 hPa 0,0 l/m 0 min 0 min 15 W/m 8,4 km/h (2 Bft)
30.12.2014 15:36 3,5 C 1,7 C 93 % 1034,5 hPa 0,0 l/m 0 min 0 min 13 W/m 8,4 km/h (2 Bft)
30.12.2014 15:38 3,4 C 1,7 C 93 % 1034,6 hPa 0,0 l/m 0 min 0 min 12 W/m 8,4 km/h (2 Bft)
30.12.2014 15:40 3,4 C 1,7 C 93 % 1034,5 hPa 0,0 l/m 0 min 0 min 11 W/m 6,3 km/h (2 Bft)
30.12.2014 15:42 3,4 C 1,7 C 93 % 1034,5 hPa 0,0 l/m 0 min 0 min 9 W/m 10,5 km/h (2 Bft)
30.12.2014 15:44 3,4 C 1,7 C 93 % 1034,5 hPa 0,0 l/m 0 min 0 min 9 W/m 10,5 km/h (2 Bft)
30.12.2014 15:46 3,4 C 1,7 C 93 % 1034,5 hPa 0,0 l/m 0 min 0 min 7 W/m 14,6 km/h (3 Bft)
30.12.2014 15:48 3,4 C 1,7 C 93 % 1034,5 hPa 0,0 l/m 0 min 0 min 7 W/m 8,4 km/h (2 Bft)
30.12.2014 15:50 3,4 C 1,7 C 93 % 1034,6 hPa 0,0 l/m 0 min 0 min 7 W/m 8,4 km/h (2 Bft)
30.12.2014 15:52 3,3 C 1,7 C 93 % 1034,6 hPa 0,0 l/m 0 min 0 min 8 W/m 8,4 km/h (2 Bft)
30.12.2014 15:54 3,3 C 1,7 C 93 % 1034,6 hPa 0,0 l/m 0 min 0 min 9 W/m 12,6 km/h (3 Bft)
30.12.2014 15:56 3,3 C 1,7 C 93 % 1034,6 hPa 0,0 l/m 0 min 0 min 9 W/m 12,6 km/h (3 Bft)
30.12.2014 15:58 3,3 C 1,7 C 93 % 1034,6 hPa 0,0 l/m 0 min 0 min 9 W/m 14,6 km/h (3 Bft)
30.12.2014 16:00 3,3 C 1,7 C 93 % 1034,6 hPa 0,0 l/m 0 min 0 min 7 W/m 10,5 km/h (2 Bft)
30.12.2014 16:02 3,3 C 1,7 C 93 % 1034,6 hPa 0,0 l/m 0 min 0 min 7 W/m 12,6 km/h (3 Bft)
30.12.2014 16:04 3,3 C 1,7 C 93 % 1034,6 hPa 0,0 l/m 0 min 0 min 7 W/m 12,6 km/h (3 Bft)
30.12.2014 16:06 3,3 C 1,7 C 93 % 1034,6 hPa 0,0 l/m 0 min 0 min 5 W/m 14,6 km/h (3 Bft)
30.12.2014 16:08 3,2 C 1,7 C 93 % 1034,6 hPa 0,0 l/m 0 min 0 min 5 W/m 12,6 km/h (3 Bft)
30.12.2014 16:10 3,2 C 1,7 C 93 % 1034,6 hPa 0,0 l/m 0 min 0 min 7 W/m 8,4 km/h (2 Bft)
30.12.2014 16:12 3,2 C 1,7 C 93 % 1034,6 hPa 0,0 l/m 0 min 0 min 5 W/m 8,4 km/h (2 Bft)
30.12.2014 16:14 3,2 C 1,7 C 93 % 1034,6 hPa 0,0 l/m 0 min 0 min 5 W/m 10,5 km/h (2 Bft)
30.12.2014 16:16 3,2 C 1,7 C 93 % 1034,6 hPa 0,0 l/m 0 min 0 min 5 W/m 8,4 km/h (2 Bft)
30.12.2014 16:18 3,2 C 1,7 C 93 % 1034,6 hPa 0,0 l/m 0 min 0 min 1 W/m 8,4 km/h (2 Bft)
30.12.2014 16:20 3,2 C 1,7 C 93 % 1034,6 hPa 0,0 l/m 0 min 0 min 0 W/m 6,3 km/h (2 Bft)
30.12.2014 16:22 3,2 C 1,7 C 93 % 1034,7 hPa 0,0 l/m 0 min 0 min 0 W/m 4,2 km/h (1 Bft)
30.12.2014 16:24 3,2 C 1,7 C 93 % 1034,6 hPa 0,0 l/m 0 min 0 min 0 W/m 6,3 km/h (2 Bft)
30.12.2014 16:26 3,2 C 1,7 C 93 % 1034,6 hPa 0,0 l/m 0 min 0 min 0 W/m 10,5 km/h (2 Bft)
30.12.2014 16:28 3,2 C 1,1 C 93 % 1034,6 hPa 0,0 l/m 0 min 0 min 0 W/m 8,4 km/h (2 Bft)
30.12.2014 16:30 3,2 C 1,1 C 93 % 1034,6 hPa 0,0 l/m 0 min 0 min 0 W/m 10,5 km/h (2 Bft)
30.12.2014 16:32 3,2 C 1,1 C 93 % 1034,6 hPa 0,0 l/m 0 min 0 min 0 W/m 10,5 km/h (2 Bft)
30.12.2014 16:34 3,1 C 1,1 C 93 % 1034,5 hPa 0,0 l/m 0 min 0 min 0 W/m 8,4 km/h (2 Bft)
30.12.2014 16:36 3,1 C 1,7 C 93 % 1034,4 hPa 0,0 l/m 0 min 0 min 0 W/m 10,5 km/h (2 Bft)
30.12.2014 16:38 3,1 C 1,7 C 93 % 1034,4 hPa 0,0 l/m 0 min 0 min 0 W/m 10,5 km/h (2 Bft)
30.12.2014 16:40 3,1 C 1,7 C 93 % 1034,2 hPa 0,0 l/m 0 min 0 min 0 W/m 10,5 km/h (2 Bft)
30.12.2014 16:42 3,1 C 1,7 C 93 % 1034,4 hPa 0,0 l/m 0 min 0 min 0 W/m 12,6 km/h (3 Bft)
30.12.2014 16:44 3,1 C 1,7 C 93 % 1034,3 hPa 0,0 l/m 0 min 0 min 0 W/m 12,6 km/h (3 Bft)
30.12.2014 16:46 3,1 C 1,7 C 93 % 1034,4 hPa 0,0 l/m 0 min 0 min 0 W/m 10,5 km/h (2 Bft)
30.12.2014 16:48 3,1 C 1,7 C 93 % 1034,2 hPa 0,0 l/m 0 min 0 min 0 W/m 10,5 km/h (2 Bft)
30.12.2014 16:50 3,1 C 1,7 C 93 % 1034,2 hPa 0,0 l/m 0 min 0 min 0 W/m 12,6 km/h (3 Bft)
30.12.2014 16:52 3,1 C 1,7 C 93 % 1034,2 hPa 0,0 l/m 0 min 0 min 0 W/m 12,6 km/h (3 Bft)
30.12.2014 16:54 3,1 C 1,7 C 93 % 1034,2 hPa 0,0 l/m 0 min 0 min 0 W/m 10,5 km/h (2 Bft)
30.12.2014 16:56 3,1 C 1,7 C 93 % 1034,2 hPa 0,0 l/m 0 min 0 min 0 W/m 10,5 km/h (2 Bft)
30.12.2014 16:58 3,0 C 1,7 C 93 % 1034,2 hPa 0,0 l/m 0 min 0 min 0 W/m 10,5 km/h (2 Bft)
30.12.2014 17:00 3,0 C 1,7 C 93 % 1034,2 hPa 0,0 l/m 0 min 0 min 0 W/m 10,5 km/h (2 Bft)
30.12.2014 17:02 3,0 C 1,7 C 93 % 1034,2 hPa 0,0 l/m 0 min 0 min 0 W/m 12,6 km/h (3 Bft)
30.12.2014 17:04 3,0 C 1,7 C 93 % 1034,1 hPa 0,0 l/m 0 min 0 min 0 W/m 12,6 km/h (3 Bft)
30.12.2014 17:06 3,0 C 1,7 C 93 % 1034,1 hPa 0,0 l/m 0 min 0 min 0 W/m 12,6 km/h (3 Bft)
30.12.2014 17:08 3,0 C 1,7 C 93 % 1034,1 hPa 0,0 l/m 0 min 0 min 0 W/m 16,7 km/h (3 Bft)
30.12.2014 17:10 3,0 C 1,1 C 93 % 1034,1 hPa 0,0 l/m 0 min 0 min 0 W/m 14,6 km/h (3 Bft)
30.12.2014 17:12 2,9 C 1,7 C 93 % 1034,2 hPa 0,0 l/m 0 min 0 min 0 W/m 16,7 km/h (3 Bft)
30.12.2014 17:14 2,9 C 1,1 C 93 % 1034,2 hPa 0,0 l/m 0 min 0 min 0 W/m 12,6 km/h (3 Bft)
30.12.2014 17:16 2,9 C 1,1 C 93 % 1034,2 hPa 0,0 l/m 0 min 0 min 0 W/m 8,4 km/h (2 Bft)
30.12.2014 17:18 2,9 C 1,1 C 93 % 1034,2 hPa 0,0 l/m 0 min 0 min 0 W/m 8,4 km/h (2 Bft)
30.12.2014 17:20 2,9 C 1,1 C 93 % 1034,2 hPa 0,0 l/m 0 min 0 min 0 W/m 6,3 km/h (2 Bft)
30.12.2014 17:22 2,9 C 1,1 C 92 % 1034,1 hPa 0,0 l/m 0 min 0 min 0 W/m 6,3 km/h (2 Bft)
30.12.2014 17:24 2,9 C 1,1 C 93 % 1034,2 hPa 0,0 l/m 0 min 0 min 0 W/m 8,4 km/h (2 Bft)
30.12.2014 17:26 2,9 C 1,1 C 92 % 1034,2 hPa 0,0 l/m 0 min 0 min 0 W/m 8,4 km/h (2 Bft)
30.12.2014 17:28 2,9 C 1,1 C 92 % 1034,1 hPa 0,0 l/m 0 min 0 min 0 W/m 6,3 km/h (2 Bft)
30.12.2014 17:30 2,9 C 1,1 C 92 % 1034,2 hPa 0,0 l/m 0 min 0 min 0 W/m 12,6 km/h (3 Bft)
30.12.2014 17:32 2,9 C 1,1 C 92 % 1034,2 hPa 0,0 l/m 0 min 0 min 0 W/m 10,5 km/h (2 Bft)
30.12.2014 17:34 2,9 C 1,1 C 92 % 1034,2 hPa 0,0 l/m 0 min 0 min 0 W/m 10,5 km/h (2 Bft)
30.12.2014 17:36 2,9 C 1,1 C 92 % 1034,2 hPa 0,0 l/m 0 min 0 min 0 W/m 8,4 km/h (2 Bft)
30.12.2014 17:38 2,9 C 1,1 C 92 % 1034,2 hPa 0,0 l/m 0 min 0 min 0 W/m 8,4 km/h (2 Bft)
30.12.2014 17:40 2,8 C 1,1 C 92 % 1034,2 hPa 0,0 l/m 0 min 0 min 0 W/m 8,4 km/h (2 Bft)
30.12.2014 17:42 2,8 C 1,1 C 92 % 1034,2 hPa 0,0 l/m 0 min 0 min 0 W/m 8,4 km/h (2 Bft)
30.12.2014 17:44 2,8 C 1,1 C 92 % 1034,2 hPa 0,0 l/m 0 min 0 min 0 W/m 8,4 km/h (2 Bft)
30.12.2014 17:46 2,8 C 1,1 C 92 % 1034,2 hPa 0,0 l/m 0 min 0 min 0 W/m 8,4 km/h (2 Bft)
30.12.2014 17:48 2,8 C 1,1 C 92 % 1034,3 hPa 0,0 l/m 0 min 0 min 0 W/m 12,6 km/h (3 Bft)
30.12.2014 17:50 2,8 C 1,1 C 92 % 1034,2 hPa 0,0 l/m 0 min 0 min 0 W/m 10,5 km/h (2 Bft)
30.12.2014 17:52 2,8 C 1,1 C 92 % 1034,2 hPa 0,0 l/m 0 min 0 min 0 W/m 12,6 km/h (3 Bft)
30.12.2014 17:54 2,8 C 1,1 C 92 % 1034,2 hPa 0,0 l/m 0 min 0 min 0 W/m 12,6 km/h (3 Bft)
30.12.2014 17:56 2,8 C 1,1 C 92 % 1034,2 hPa 0,0 l/m 0 min 0 min 0 W/m 12,6 km/h (3 Bft)
30.12.2014 17:58 2,8 C 1,1 C 92 % 1034,2 hPa 0,0 l/m 0 min 0 min 0 W/m 12,6 km/h (3 Bft)
30.12.2014 18:00 2,8 C 1,1 C 92 % 1034,2 hPa 0,0 l/m 0 min 0 min 0 W/m 10,5 km/h (2 Bft)
30.12.2014 18:02 2,8 C 1,1 C 92 % 1034,2 hPa 0,0 l/m 0 min 0 min 0 W/m 10,5 km/h (2 Bft)
30.12.2014 18:05 2,8 C 1,1 C 92 % 1034,2 hPa 0,0 l/m 0 min 0 min 0 W/m 8,4 km/h (2 Bft)
30.12.2014 18:08 2,8 C 1,1 C 92 % 1034,2 hPa 0,0 l/m 0 min 0 min 0 W/m 8,4 km/h (2 Bft)
30.12.2014 18:10 2,8 C 1,1 C 92 % 1034,2 hPa 0,0 l/m 0 min 0 min 0 W/m 6,3 km/h (2 Bft)
30.12.2014 18:12 2,8 C 1,1 C 92 % 1034,2 hPa 0,0 l/m 0 min 0 min 0 W/m 8,4 km/h (2 Bft)
30.12.2014 18:14 2,8 C 1,1 C 92 % 1034,3 hPa 0,0 l/m 0 min 0 min 0 W/m 10,5 km/h (2 Bft)
30.12.2014 18:16 2,9 C 1,1 C 92 % 1034,2 hPa 0,0 l/m 0 min 0 min 0 W/m 10,5 km/h (2 Bft)
30.12.2014 18:18 2,9 C 1,1 C 92 % 1034,1 hPa 0,0 l/m 0 min 0 min 0 W/m 8,4 km/h (2 Bft)
30.12.2014 18:20 2,9 C 1,7 C 92 % 1034,1 hPa 0,0 l/m 0 min 0 min 0 W/m 10,5 km/h (2 Bft)
30.12.2014 18:22 2,9 C 1,7 C 92 % 1034,1 hPa 0,0 l/m 0 min 0 min 0 W/m 10,5 km/h (2 Bft)
30.12.2014 18:24 2,9 C 1,7 C 92 % 1034,1 hPa 0,0 l/m 0 min 0 min 0 W/m 10,5 km/h (2 Bft)
30.12.2014 18:26 2,9 C 1,7 C 92 % 1034,1 hPa 0,0 l/m 0 min 0 min 0 W/m 12,6 km/h (3 Bft)
30.12.2014 18:28 2,9 C 1,7 C 92 % 1034,1 hPa 0,0 l/m 0 min 0 min 0 W/m 6,3 km/h (2 Bft)
30.12.2014 18:30 2,9 C 1,7 C 92 % 1034,1 hPa 0,0 l/m 0 min 0 min 0 W/m 12,6 km/h (3 Bft)
30.12.2014 18:32 2,9 C 1,7 C 92 % 1034,1 hPa 0,0 l/m 0 min 0 min 0 W/m 10,5 km/h (2 Bft)
30.12.2014 18:34 2,9 C 1,1 C 92 % 1034,0 hPa 0,0 l/m 0 min 0 min 0 W/m 10,5 km/h (2 Bft)
30.12.2014 18:36 2,9 C 1,1 C 92 % 1034,1 hPa 0,0 l/m 0 min 0 min 0 W/m 10,5 km/h (2 Bft)
30.12.2014 18:38 2,9 C 1,1 C 92 % 1034,1 hPa 0,0 l/m 0 min 0 min 0 W/m 14,6 km/h (3 Bft)
30.12.2014 18:40 2,9 C 1,7 C 92 % 1034,1 hPa 0,0 l/m 0 min 0 min 0 W/m 10,5 km/h (2 Bft)
30.12.2014 18:42 2,9 C 1,1 C 92 % 1034,1 hPa 0,0 l/m 0 min 0 min 0 W/m 10,5 km/h (2 Bft)
30.12.2014 18:44 2,9 C 1,1 C 92 % 1034,1 hPa 0,0 l/m 0 min 0 min 0 W/m 12,6 km/h (3 Bft)
30.12.2014 18:46 2,9 C 1,1 C 92 % 1034,0 hPa 0,0 l/m 0 min 0 min 0 W/m 12,6 km/h (3 Bft)
30.12.2014 18:48 2,9 C 1,1 C 92 % 1034,0 hPa 0,0 l/m 0 min 0 min 0 W/m 10,5 km/h (2 Bft)
30.12.2014 18:50 2,9 C 1,1 C 92 % 1034,0 hPa 0,0 l/m 0 min 0 min 0 W/m 12,6 km/h (3 Bft)
30.12.2014 18:52 2,8 C 1,1 C 92 % 1033,9 hPa 0,0 l/m 0 min 0 min 0 W/m 12,6 km/h (3 Bft)
30.12.2014 18:54 2,8 C 1,1 C 92 % 1034,0 hPa 0,0 l/m 0 min 0 min 0 W/m 14,6 km/h (3 Bft)
30.12.2014 18:56 2,8 C 1,1 C 92 % 1033,9 hPa 0,0 l/m 0 min 0 min 0 W/m 16,7 km/h (3 Bft)
30.12.2014 18:58 2,8 C 1,1 C 92 % 1033,8 hPa 0,0 l/m 0 min 0 min 0 W/m 12,6 km/h (3 Bft)
30.12.2014 19:00 2,8 C 1,1 C 92 % 1033,8 hPa 0,0 l/m 0 min 0 min 0 W/m 12,6 km/h (3 Bft)
30.12.2014 19:02 2,8 C 1,1 C 92 % 1033,7 hPa 0,0 l/m 0 min 0 min 0 W/m 12,6 km/h (3 Bft)
30.12.2014 19:04 2,7 C 1,1 C 92 % 1033,7 hPa 0,0 l/m 0 min 0 min 0 W/m 14,6 km/h (3 Bft)
30.12.2014 19:06 2,7 C 0,6 C 92 % 1033,7 hPa 0,0 l/m 0 min 0 min 0 W/m 12,6 km/h (3 Bft)
30.12.2014 19:08 2,7 C 0,6 C 92 % 1033,8 hPa 0,0 l/m 0 min 0 min 0 W/m 10,5 km/h (2 Bft)
30.12.2014 19:10 2,7 C 0,6 C 92 % 1033,8 hPa 0,0 l/m 0 min 0 min 0 W/m 10,5 km/h (2 Bft)
30.12.2014 19:12 2,7 C 0,6 C 92 % 1033,8 hPa 0,0 l/m 0 min 0 min 0 W/m 10,5 km/h (2 Bft)
30.12.2014 19:14 2,6 C 0,6 C 92 % 1033,9 hPa 0,0 l/m 0 min 0 min 0 W/m 12,6 km/h (3 Bft)
30.12.2014 19:16 2,6 C 0,6 C 92 % 1033,9 hPa 0,0 l/m 0 min 0 min 0 W/m 8,4 km/h (2 Bft)
30.12.2014 19:18 2,6 C 0,6 C 92 % 1034,0 hPa 0,0 l/m 0 min 0 min 0 W/m 10,5 km/h (2 Bft)
30.12.2014 19:20 2,6 C 0,6 C 92 % 1034,0 hPa 0,0 l/m 0 min 0 min 0 W/m 8,4 km/h (2 Bft)
30.12.2014 19:22 2,6 C 0,6 C 92 % 1034,1 hPa 0,0 l/m 0 min 0 min 0 W/m 10,5 km/h (2 Bft)
30.12.2014 19:24 2,6 C 0,6 C 92 % 1034,1 hPa 0,0 l/m 0 min 0 min 0 W/m 8,4 km/h (2 Bft)
30.12.2014 19:26 2,5 C 0,6 C 92 % 1034,2 hPa 0,0 l/m 0 min 0 min 0 W/m 10,5 km/h (2 Bft)
30.12.2014 19:28 2,5 C 0,6 C 92 % 1034,2 hPa 0,0 l/m 0 min 0 min 0 W/m 6,3 km/h (2 Bft)
30.12.2014 19:30 2,4 C 0,6 C 92 % 1034,3 hPa 0,0 l/m 0 min 0 min 0 W/m 6,3 km/h (2 Bft)
30.12.2014 19:32 2,4 C 0,6 C 92 % 1034,3 hPa 0,0 l/m 0 min 0 min 0 W/m 8,4 km/h (2 Bft)
30.12.2014 19:34 2,4 C 0,6 C 92 % 1034,3 hPa 0,0 l/m 0 min 0 min 0 W/m 10,5 km/h (2 Bft)
30.12.2014 19:36 2,4 C 0,6 C 92 % 1034,3 hPa 0,0 l/m 0 min 0 min 0 W/m 10,5 km/h (2 Bft)
30.12.2014 19:38 2,4 C 0,6 C 92 % 1034,4 hPa 0,0 l/m 0 min 0 min 0 W/m 8,4 km/h (2 Bft)
30.12.2014 19:40 2,4 C 1,1 C 92 % 1034,4 hPa 0,0 l/m 0 min 0 min 0 W/m 8,4 km/h (2 Bft)
30.12.2014 19:42 2,4 C 1,1 C 92 % 1034,5 hPa 0,0 l/m 0 min 0 min 0 W/m 8,4 km/h (2 Bft)
30.12.2014 19:44 2,4 C 1,1 C 93 % 1034,5 hPa 0,0 l/m 0 min 0 min 0 W/m 10,5 km/h (2 Bft)
30.12.2014 19:46 2,4 C 1,1 C 93 % 1034,4 hPa 0,0 l/m 0 min 0 min 0 W/m 12,6 km/h (3 Bft)
30.12.2014 19:48 2,4 C 1,1 C 93 % 1034,5 hPa 0,0 l/m 0 min 0 min 0 W/m 10,5 km/h (2 Bft)
30.12.2014 19:50 2,4 C 1,1 C 93 % 1034,4 hPa 0,0 l/m 0 min 0 min 0 W/m 12,6 km/h (3 Bft)
30.12.2014 19:52 2,4 C 1,1 C 93 % 1034,3 hPa 0,0 l/m 0 min 0 min 0 W/m 10,5 km/h (2 Bft)
30.12.2014 19:54 2,4 C 1,1 C 93 % 1034,3 hPa 0,0 l/m 0 min 0 min 0 W/m 12,6 km/h (3 Bft)
30.12.2014 19:56 2,4 C 1,1 C 93 % 1034,2 hPa 0,0 l/m 0 min 0 min 0 W/m 12,6 km/h (3 Bft)
30.12.2014 19:58 2,4 C 1,1 C 93 % 1034,3 hPa 0,0 l/m 0 min 0 min 0 W/m 12,6 km/h (3 Bft)
30.12.2014 20:00 2,4 C 1,1 C 93 % 1034,4 hPa 0,0 l/m 0 min 0 min 0 W/m 12,6 km/h (3 Bft)
30.12.2014 20:02 2,4 C 1,1 C 93 % 1034,3 hPa 0,0 l/m 0 min 0 min 0 W/m 12,6 km/h (3 Bft)
30.12.2014 20:04 2,4 C 1,1 C 93 % 1034,3 hPa 0,0 l/m 0 min 0 min 0 W/m 16,7 km/h (3 Bft)
30.12.2014 20:06 2,4 C 1,1 C 93 % 1034,3 hPa 0,0 l/m 0 min 0 min 0 W/m 16,7 km/h (3 Bft)
30.12.2014 20:08 2,5 C 1,1 C 93 % 1034,3 hPa 0,0 l/m 0 min 0 min 0 W/m 12,6 km/h (3 Bft)
30.12.2014 20:10 2,5 C 1,1 C 93 % 1034,4 hPa 0,0 l/m 0 min 0 min 0 W/m 12,6 km/h (3 Bft)
30.12.2014 20:12 2,5 C 1,1 C 93 % 1034,4 hPa 0,0 l/m 0 min 0 min 0 W/m 18,8 km/h (3 Bft)
30.12.2014 20:14 2,5 C 1,1 C 93 % 1034,3 hPa 0,0 l/m 0 min 0 min 0 W/m 14,6 km/h (3 Bft)
30.12.2014 20:16 2,5 C 1,1 C 93 % 1034,3 hPa 0,0 l/m 0 min 0 min 0 W/m 16,7 km/h (3 Bft)
30.12.2014 20:18 2,5 C 1,1 C 93 % 1034,3 hPa 0,0 l/m 0 min 0 min 0 W/m 14,6 km/h (3 Bft)
30.12.2014 20:20 2,5 C 1,1 C 93 % 1034,4 hPa 0,0 l/m 0 min 0 min 0 W/m 16,7 km/h (3 Bft)
30.12.2014 20:22 2,6 C 1,1 C 93 % 1034,5 hPa 0,0 l/m 0 min 0 min 0 W/m 12,6 km/h (3 Bft)
30.12.2014 20:24 2,6 C 1,1 C 93 % 1034,6 hPa 0,0 l/m 0 min 0 min 0 W/m 14,6 km/h (3 Bft)
30.12.2014 20:26 2,6 C 1,1 C 93 % 1034,5 hPa 0,0 l/m 0 min 0 min 0 W/m 23,0 km/h (4 Bft)
30.12.2014 20:28 2,6 C 1,1 C 93 % 1034,5 hPa 0,0 l/m 0 min 0 min 0 W/m 16,7 km/h (3 Bft)
30.12.2014 20:30 2,6 C 1,1 C 93 % 1034,6 hPa 0,0 l/m 0 min 0 min 0 W/m 12,6 km/h (3 Bft)
30.12.2014 20:32 2,6 C 1,1 C 93 % 1034,6 hPa 0,0 l/m 0 min 0 min 0 W/m 18,8 km/h (3 Bft)
30.12.2014 20:34 2,6 C 1,1 C 93 % 1034,6 hPa 0,0 l/m 0 min 0 min 0 W/m 12,6 km/h (3 Bft)
30.12.2014 20:36 2,6 C 1,1 C 93 % 1034,6 hPa 0,0 l/m 0 min 0 min 0 W/m 12,6 km/h (3 Bft)
30.12.2014 20:38 2,6 C 1,1 C 93 % 1034,6 hPa 0,0 l/m 0 min 0 min 0 W/m 12,6 km/h (3 Bft)
30.12.2014 20:40 2,6 C 1,1 C 93 % 1034,6 hPa 0,0 l/m 0 min 0 min 0 W/m 12,6 km/h (3 Bft)
30.12.2014 20:42 2,6 C 1,1 C 93 % 1034,6 hPa 0,0 l/m 0 min 0 min 0 W/m 12,6 km/h (3 Bft)
30.12.2014 20:44 2,6 C 1,1 C 93 % 1034,5 hPa 0,0 l/m 0 min 0 min 0 W/m 12,6 km/h (3 Bft)
30.12.2014 20:46 2,7 C 1,1 C 93 % 1034,5 hPa 0,0 l/m 0 min 0 min 0 W/m 14,6 km/h (3 Bft)
30.12.2014 20:48 2,6 C 1,1 C 93 % 1034,5 hPa 0,0 l/m 0 min 0 min 0 W/m 18,8 km/h (3 Bft)
30.12.2014 20:50 2,7 C 1,1 C 93 % 1034,5 hPa 0,0 l/m 0 min 0 min 0 W/m 16,7 km/h (3 Bft)
30.12.2014 20:52 2,6 C 1,1 C 93 % 1034,5 hPa 0,0 l/m 0 min 0 min 0 W/m 12,6 km/h (3 Bft)
30.12.2014 20:54 2,7 C 1,1 C 93 % 1034,6 hPa 0,0 l/m 0 min 0 min 0 W/m 12,6 km/h (3 Bft)
30.12.2014 20:56 2,6 C 1,1 C 93 % 1034,6 hPa 0,0 l/m 0 min 0 min 0 W/m 18,8 km/h (3 Bft)
30.12.2014 20:58 2,6 C 1,1 C 93 % 1034,5 hPa 0,0 l/m 0 min 0 min 0 W/m 16,7 km/h (3 Bft)
30.12.2014 21:00 2,6 C 1,1 C 93 % 1034,5 hPa 0,0 l/m 0 min 0 min 0 W/m 14,6 km/h (3 Bft)
30.12.2014 21:02 2,6 C 1,1 C 93 % 1034,6 hPa 0,0 l/m 0 min 0 min 0 W/m 14,6 km/h (3 Bft)
30.12.2014 21:04 2,6 C 1,1 C 93 % 1034,5 hPa 0,0 l/m 0 min 0 min 0 W/m 14,6 km/h (3 Bft)
30.12.2014 21:06 2,6 C 1,1 C 93 % 1034,5 hPa 0,0 l/m 0 min 0 min 0 W/m 16,7 km/h (3 Bft)
30.12.2014 21:08 2,6 C 1,1 C 93 % 1034,4 hPa 0,0 l/m 0 min 0 min 0 W/m 16,7 km/h (3 Bft)
30.12.2014 21:10 2,6 C 1,1 C 93 % 1034,3 hPa 0,0 l/m 0 min 0 min 0 W/m 14,6 km/h (3 Bft)
30.12.2014 21:12 2,6 C 1,1 C 93 % 1034,3 hPa 0,0 l/m 0 min 0 min 0 W/m 16,7 km/h (3 Bft)
30.12.2014 21:14 2,6 C 1,1 C 93 % 1034,3 hPa 0,0 l/m 0 min 0 min 0 W/m 12,6 km/h (3 Bft)
30.12.2014 21:16 2,6 C 1,1 C 93 % 1034,4 hPa 0,0 l/m 0 min 0 min 0 W/m 14,6 km/h (3 Bft)
30.12.2014 21:18 2,6 C 1,1 C 93 % 1034,5 hPa 0,0 l/m 0 min 0 min 0 W/m 14,6 km/h (3 Bft)
30.12.2014 21:20 2,6 C 1,1 C 93 % 1034,4 hPa 0,0 l/m 0 min 0 min 0 W/m 14,6 km/h (3 Bft)
30.12.2014 21:22 2,6 C 1,1 C 93 % 1034,3 hPa 0,0 l/m 0 min 0 min 0 W/m 14,6 km/h (3 Bft)
30.12.2014 21:24 2,6 C 1,1 C 93 % 1034,3 hPa 0,0 l/m 0 min 0 min 0 W/m 12,6 km/h (3 Bft)
30.12.2014 21:26 2,6 C 1,1 C 93 % 1034,2 hPa 0,0 l/m 0 min 0 min 0 W/m 16,7 km/h (3 Bft)
30.12.2014 21:28 2,6 C 1,1 C 93 % 1034,3 hPa 0,0 l/m 0 min 0 min 0 W/m 14,6 km/h (3 Bft)
30.12.2014 21:30 2,6 C 1,1 C 93 % 1034,2 hPa 0,0 l/m 0 min 0 min 0 W/m 14,6 km/h (3 Bft)
30.12.2014 21:32 2,6 C 1,1 C 93 % 1034,2 hPa 0,0 l/m 0 min 0 min 0 W/m 16,7 km/h (3 Bft)
30.12.2014 21:34 2,6 C 1,1 C 93 % 1034,2 hPa 0,0 l/m 0 min 0 min 0 W/m 12,6 km/h (3 Bft)
30.12.2014 21:36 2,6 C 1,1 C 93 % 1034,2 hPa 0,0 l/m 0 min 0 min 0 W/m 14,6 km/h (3 Bft)
30.12.2014 21:38 2,6 C 1,1 C 93 % 1034,2 hPa 0,0 l/m 0 min 0 min 0 W/m 20,9 km/h (4 Bft)
30.12.2014 21:40 2,6 C 1,1 C 93 % 1034,2 hPa 0,0 l/m 0 min 0 min 0 W/m 16,7 km/h (3 Bft)
30.12.2014 21:42 2,6 C 1,1 C 93 % 1034,2 hPa 0,0 l/m 0 min 0 min 0 W/m 14,6 km/h (3 Bft)
30.12.2014 21:44 2,5 C 1,1 C 93 % 1034,3 hPa 0,0 l/m 0 min 0 min 0 W/m 12,6 km/h (3 Bft)
30.12.2014 21:46 2,5 C 1,1 C 93 % 1034,3 hPa 0,0 l/m 0 min 0 min 0 W/m 18,8 km/h (3 Bft)
30.12.2014 21:48 2,5 C 1,1 C 93 % 1034,2 hPa 0,0 l/m 0 min 0 min 0 W/m 18,8 km/h (3 Bft)
30.12.2014 21:50 2,5 C 1,1 C 93 % 1034,3 hPa 0,0 l/m 0 min 0 min 0 W/m 16,7 km/h (3 Bft)
30.12.2014 21:52 2,5 C 1,1 C 93 % 1034,2 hPa 0,0 l/m 0 min 0 min 0 W/m 16,7 km/h (3 Bft)
30.12.2014 21:54 2,5 C 1,1 C 93 % 1034,2 hPa 0,0 l/m 0 min 0 min 0 W/m 23,0 km/h (4 Bft)
30.12.2014 21:56 2,5 C 1,1 C 93 % 1034,3 hPa 0,0 l/m 0 min 0 min 0 W/m 16,7 km/h (3 Bft)
30.12.2014 21:58 2,5 C 1,1 C 93 % 1034,3 hPa 0,0 l/m 0 min 0 min 0 W/m 14,6 km/h (3 Bft)
30.12.2014 22:00 2,5 C 1,1 C 93 % 1034,3 hPa 0,0 l/m 0 min 0 min 0 W/m 14,6 km/h (3 Bft)
30.12.2014 22:02 2,5 C 1,1 C 93 % 1034,3 hPa 0,0 l/m 0 min 0 min 0 W/m 14,6 km/h (3 Bft)
30.12.2014 22:04 2,5 C 1,1 C 93 % 1034,2 hPa 0,0 l/m 0 min 0 min 0 W/m 12,6 km/h (3 Bft)
30.12.2014 22:06 2,5 C 1,1 C 93 % 1034,2 hPa 0,0 l/m 0 min 0 min 0 W/m 12,6 km/h (3 Bft)
30.12.2014 22:08 2,5 C 1,1 C 93 % 1034,2 hPa 0,0 l/m 0 min 0 min 0 W/m 14,6 km/h (3 Bft)
30.12.2014 22:10 2,5 C 1,1 C 94 % 1034,1 hPa 0,0 l/m 0 min 0 min 0 W/m 16,7 km/h (3 Bft)
30.12.2014 22:12 2,5 C 1,1 C 94 % 1034,1 hPa 0,0 l/m 0 min 0 min 0 W/m 18,8 km/h (3 Bft)
30.12.2014 22:14 2,5 C 1,1 C 93 % 1034,1 hPa 0,0 l/m 0 min 0 min 0 W/m 14,6 km/h (3 Bft)
30.12.2014 22:16 2,5 C 1,1 C 93 % 1034,1 hPa 0,0 l/m 0 min 0 min 0 W/m 12,6 km/h (3 Bft)
30.12.2014 22:18 2,5 C 1,1 C 93 % 1034,1 hPa 0,0 l/m 0 min 0 min 0 W/m 16,7 km/h (3 Bft)
30.12.2014 22:20 2,5 C 1,1 C 93 % 1034,0 hPa 0,0 l/m 0 min 0 min 0 W/m 14,6 km/h (3 Bft)
30.12.2014 22:22 2,5 C 1,1 C 93 % 1034,0 hPa 0,0 l/m 0 min 0 min 0 W/m 18,8 km/h (3 Bft)
30.12.2014 22:24 2,5 C 1,1 C 94 % 1034,0 hPa 0,0 l/m 0 min 0 min 0 W/m 18,8 km/h (3 Bft)
30.12.2014 22:26 2,5 C 1,1 C 94 % 1034,0 hPa 0,0 l/m 0 min 0 min 0 W/m 18,8 km/h (3 Bft)
30.12.2014 22:28 2,5 C 1,1 C 94 % 1034,1 hPa 0,0 l/m 0 min 0 min 0 W/m 18,8 km/h (3 Bft)
30.12.2014 22:30 2,5 C 1,1 C 94 % 1034,1 hPa 0,0 l/m 0 min 0 min 0 W/m 18,8 km/h (3 Bft)
30.12.2014 22:32 2,5 C 1,1 C 94 % 1034,1 hPa 0,0 l/m 0 min 0 min 0 W/m 18,8 km/h (3 Bft)
30.12.2014 22:34 2,5 C 1,1 C 94 % 1034,2 hPa 0,0 l/m 0 min 0 min 0 W/m 14,6 km/h (3 Bft)
30.12.2014 22:36 2,5 C 1,1 C 94 % 1034,2 hPa 0,0 l/m 0 min 0 min 0 W/m 18,8 km/h (3 Bft)
30.12.2014 22:38 2,5 C 1,1 C 94 % 1034,2 hPa 0,0 l/m 0 min 0 min 0 W/m 16,7 km/h (3 Bft)
30.12.2014 22:40 2,5 C 1,1 C 94 % 1034,2 hPa 0,0 l/m 0 min 0 min 0 W/m 14,6 km/h (3 Bft)
30.12.2014 22:42 2,5 C 1,1 C 94 % 1034,2 hPa 0,0 l/m 0 min 0 min 0 W/m 16,7 km/h (3 Bft)
30.12.2014 22:44 2,5 C 1,1 C 94 % 1034,2 hPa 0,0 l/m 0 min 0 min 0 W/m 14,6 km/h (3 Bft)
30.12.2014 22:46 2,5 C 1,1 C 94 % 1034,2 hPa 0,0 l/m 0 min 0 min 0 W/m 16,7 km/h (3 Bft)
30.12.2014 22:48 2,5 C 1,1 C 94 % 1034,2 hPa 0,0 l/m 0 min 0 min 0 W/m 20,9 km/h (4 Bft)
30.12.2014 22:50 2,5 C 1,1 C 94 % 1034,1 hPa 0,0 l/m 0 min 0 min 0 W/m 25,1 km/h (4 Bft)
30.12.2014 22:52 2,5 C 1,1 C 94 % 1034,2 hPa 0,0 l/m 0 min 0 min 0 W/m 16,7 km/h (3 Bft)
30.12.2014 22:54 2,5 C 1,1 C 94 % 1034,2 hPa 0,0 l/m 0 min 0 min 0 W/m 20,9 km/h (4 Bft)
30.12.2014 22:56 2,5 C 1,1 C 94 % 1034,2 hPa 0,0 l/m 0 min 0 min 0 W/m 16,7 km/h (3 Bft)
30.12.2014 22:58 2,5 C 1,1 C 94 % 1034,1 hPa 0,0 l/m 0 min 0 min 0 W/m 16,7 km/h (3 Bft)
30.12.2014 23:00 2,5 C 1,1 C 94 % 1034,1 hPa 0,0 l/m 0 min 0 min 0 W/m 16,7 km/h (3 Bft)
30.12.2014 23:02 2,6 C 1,1 C 94 % 1034,1 hPa 0,0 l/m 0 min 0 min 0 W/m 18,8 km/h (3 Bft)
30.12.2014 23:04 2,5 C 1,1 C 94 % 1034,1 hPa 0,0 l/m 0 min 0 min 0 W/m 18,8 km/h (3 Bft)
30.12.2014 23:06 2,5 C 1,1 C 94 % 1034,1 hPa 0,0 l/m 0 min 0 min 0 W/m 16,7 km/h (3 Bft)
30.12.2014 23:08 2,5 C 1,1 C 94 % 1034,1 hPa 0,0 l/m 0 min 0 min 0 W/m 16,7 km/h (3 Bft)
30.12.2014 23:10 2,5 C 1,1 C 94 % 1034,1 hPa 0,0 l/m 0 min 0 min 0 W/m 18,8 km/h (3 Bft)
30.12.2014 23:12 2,5 C 1,1 C 94 % 1034,1 hPa 0,0 l/m 0 min 0 min 0 W/m 16,7 km/h (3 Bft)
30.12.2014 23:14 2,5 C 1,1 C 94 % 1034,1 hPa 0,0 l/m 0 min 0 min 0 W/m 16,7 km/h (3 Bft)
30.12.2014 23:16 2,5 C 1,1 C 94 % 1034,1 hPa 0,0 l/m 0 min 0 min 0 W/m 20,9 km/h (4 Bft)
30.12.2014 23:18 2,5 C 1,1 C 94 % 1034,1 hPa 0,0 l/m 0 min 0 min 0 W/m 14,6 km/h (3 Bft)
30.12.2014 23:20 2,5 C 1,1 C 94 % 1034,1 hPa 0,0 l/m 0 min 0 min 0 W/m 18,8 km/h (3 Bft)
30.12.2014 23:22 2,5 C 1,1 C 94 % 1034,2 hPa 0,0 l/m 0 min 0 min 0 W/m 16,7 km/h (3 Bft)
30.12.2014 23:24 2,5 C 1,1 C 94 % 1034,1 hPa 0,0 l/m 0 min 0 min 0 W/m 16,7 km/h (3 Bft)
30.12.2014 23:26 2,5 C 1,1 C 94 % 1034,2 hPa 0,0 l/m 0 min 0 min 0 W/m 12,6 km/h (3 Bft)
30.12.2014 23:28 2,5 C 1,1 C 94 % 1034,2 hPa 0,0 l/m 0 min 0 min 0 W/m 14,6 km/h (3 Bft)
30.12.2014 23:30 2,5 C 1,1 C 94 % 1034,2 hPa 0,0 l/m 0 min 0 min 0 W/m 16,7 km/h (3 Bft)
30.12.2014 23:32 2,5 C 1,1 C 94 % 1034,2 hPa 0,0 l/m 0 min 0 min 0 W/m 14,6 km/h (3 Bft)
30.12.2014 23:34 2,5 C 1,1 C 94 % 1034,2 hPa 0,0 l/m 0 min 0 min 0 W/m 18,8 km/h (3 Bft)
30.12.2014 23:36 2,5 C 1,1 C 94 % 1034,3 hPa 0,0 l/m 0 min 0 min 0 W/m 14,6 km/h (3 Bft)
30.12.2014 23:38 2,5 C 1,1 C 94 % 1034,2 hPa 0,0 l/m 0 min 0 min 0 W/m 14,6 km/h (3 Bft)
30.12.2014 23:40 2,5 C 1,1 C 94 % 1034,2 hPa 0,0 l/m 0 min 0 min 0 W/m 16,7 km/h (3 Bft)
30.12.2014 23:42 2,5 C 1,1 C 95 % 1034,2 hPa 0,0 l/m 0 min 0 min 0 W/m 14,6 km/h (3 Bft)
30.12.2014 23:44 2,5 C 1,1 C 95 % 1034,2 hPa 0,0 l/m 0 min 0 min 0 W/m 16,7 km/h (3 Bft)
30.12.2014 23:46 2,5 C 1,1 C 95 % 1034,2 hPa 0,0 l/m 0 min 0 min 0 W/m 18,8 km/h (3 Bft)
30.12.2014 23:48 2,5 C 1,1 C 95 % 1034,1 hPa 0,0 l/m 0 min 0 min 0 W/m 16,7 km/h (3 Bft)
30.12.2014 23:50 2,5 C 1,1 C 95 % 1034,1 hPa 0,0 l/m 0 min 0 min 0 W/m 16,7 km/h (3 Bft)
30.12.2014 23:52 2,5 C 1,1 C 95 % 1034,1 hPa 0,0 l/m 0 min 0 min 0 W/m 14,6 km/h (3 Bft)
30.12.2014 23:54 2,5 C 1,1 C 95 % 1034,1 hPa 0,0 l/m 0 min 0 min 0 W/m 16,7 km/h (3 Bft)
30.12.2014 23:56 2,5 C 1,1 C 95 % 1034,1 hPa 0,0 l/m 0 min 0 min 0 W/m 16,7 km/h (3 Bft)
30.12.2014 23:58 2,5 C 1,1 C 95 % 1034,0 hPa 0,0 l/m 0 min 0 min 0 W/m 16,7 km/h (3 Bft)
_ Min-Zeit 00:00 00:00 17:22 19:02 - - - - 02:44
Minimum _ -0,3 C -1,1 C 92 % 1033,7 hPa - - - - 4,2 km/h (1 Bft)
_ Max-Zeit 13:36 12:38 09:58 00:00 03:32 12:24 01:16 12:32 22:50
Maximum _ 4,0 C 2,8 C 98 % 1036,8 hPa 0,2 l/m 2 min 2 min 280 W/m 25,1 km/h
W (4 Bft)
Durchschnitt _ 2,2 C 0,9 C 95 % 1035,1 hPa #1,8 l/m #26 min. #3:20 h 59 W/m 11,5 km/h (2 Bft)
© 2015 W. Hausmann